Data Archive--October, 2002

Date Time Current Temp Wind Chill High Temp Low Temp Wind Speed Gust Wind Direction Rain Barometer
10/01/2002 12:00 a 57.6 57.6 57.9 57.2 0.0 0.0 --- 0.00 30.073
10/01/2002 12:30 a 57.2 57.2 57.5 56.9 0.0 0.0 --- 0.00 30.067
10/01/2002 1:00 a 56.5 56.5 56.9 56.1 0.0 0.0 --- 0.00 30.065
10/01/2002 1:30 a 55.7 55.7 56.0 55.0 0.0 0.0 --- 0.00 30.057
10/01/2002 2:00 a 55.3 55.3 55.6 55.0 0.0 0.0 --- 0.00 30.050
10/01/2002 2:30 a 55.1 55.1 55.4 54.8 0.0 0.0 --- 0.00 30.039
10/01/2002 3:00 a 54.7 54.7 54.9 54.4 0.0 0.0 --- 0.00 30.030
10/01/2002 3:30 a 54.6 54.6 54.9 54.2 0.0 0.0 --- 0.00 30.026
10/01/2002 4:00 a 54.1 54.1 54.4 53.9 0.0 0.0 --- 0.00 30.025
10/01/2002 4:30 a 54.2 54.2 54.3 53.9 0.0 0.0 --- 0.00 30.026
10/01/2002 5:00 a 54.0 54.0 54.2 53.8 0.0 0.0 --- 0.00 30.030
10/01/2002 5:30 a 53.7 53.7 54.1 53.4 0.0 0.0 --- 0.00 30.032
10/01/2002 6:00 a 53.5 53.5 53.7 53.3 0.0 0.0 --- 0.00 30.030
10/01/2002 6:30 a 53.7 53.7 54.4 53.3 0.0 0.0 --- 0.00 30.031
10/01/2002 7:00 a 54.1 54.1 54.6 53.7 0.0 0.0 --- 0.00 30.041
10/01/2002 7:30 a 54.6 54.6 55.3 53.9 0.0 0.0 --- 0.00 30.046
10/01/2002 8:00 a 56.2 56.2 57.5 55.2 0.0 0.0 --- 0.00 30.053
10/01/2002 8:30 a 58.9 58.9 60.4 57.5 0.0 0.0 --- 0.00 30.053
10/01/2002 9:00 a 61.5 61.5 62.5 60.4 0.0 0.0 --- 0.00 30.060
10/01/2002 9:30 a 63.5 63.5 64.7 62.4 0.0 0.0 --- 0.00 30.052
10/01/2002 10:00 a 65.4 65.4 66.3 64.5 0.0 3.0 SE 0.00 30.043
10/01/2002 10:30 a 67.7 67.7 68.8 66.3 0.0 2.0 NW 0.00 30.031
10/01/2002 11:00 a 69.8 69.8 71.2 68.7 0.0 3.0 W 0.00 30.016
10/01/2002 11:30 a 72.4 72.4 73.4 71.1 0.0 3.0 WSW 0.00 30.010
10/01/2002 12:00 p 74.3 74.3 75.7 73.4 0.0 5.0 SW 0.00 29.997
10/01/2002 12:30 p 75.4 75.4 76.4 73.5 0.0 5.0 W 0.00 29.990
10/01/2002 1:00 p 77.1 77.1 78.2 76.1 0.0 2.0 WSW 0.00 29.973
10/01/2002 1:30 p 77.7 77.7 78.7 76.1 0.0 4.0 W 0.00 29.957
10/01/2002 2:00 p 79.2 79.2 80.2 77.8 0.0 4.0 SW 0.00 29.941
10/01/2002 2:30 p 79.9 79.9 80.6 78.8 0.0 3.0 SW 0.00 29.934
10/01/2002 3:00 p 80.0 80.0 80.6 79.4 0.0 4.0 W 0.00 29.927
10/01/2002 3:30 p 79.7 79.7 80.1 79.0 0.0 3.0 WSW 0.00 29.920
10/01/2002 4:00 p 78.5 78.5 79.4 77.4 0.0 2.0 WNW 0.00 29.914
10/01/2002 4:30 p 77.3 77.3 77.9 76.7 0.0 2.0 ENE 0.00 29.909
10/01/2002 5:00 p 76.3 76.3 76.8 75.7 0.0 2.0 NW 0.00 29.913
10/01/2002 5:30 p 75.1 75.1 75.9 74.5 0.0 1.0 NW 0.00 29.918
10/01/2002 6:00 p 73.9 73.9 74.6 72.8 0.0 0.0 --- 0.00 29.915
10/01/2002 6:30 p 71.9 71.9 72.8 71.1 0.0 0.0 --- 0.00 29.910
10/01/2002 7:00 p 70.5 70.5 71.1 69.8 0.0 0.0 --- 0.00 29.920
10/01/2002 7:30 p 69.4 69.4 69.9 69.1 0.0 0.0 --- 0.00 29.914
10/01/2002 8:00 p 69.1 69.1 69.4 68.8 0.0 0.0 --- 0.00 29.915
10/01/2002 8:30 p 68.4 68.4 68.8 68.0 0.0 0.0 --- 0.00 29.920
10/01/2002 9:00 p 67.6 67.6 68.0 67.2 0.0 0.0 --- 0.00 29.923
10/01/2002 9:30 p 67.3 67.3 67.7 66.7 0.0 0.0 --- 0.00 29.932
10/01/2002 10:00 p 66.0 66.0 66.7 65.2 0.0 0.0 --- 0.00 29.935
10/01/2002 10:30 p 64.8 64.8 65.2 64.6 0.0 0.0 --- 0.00 29.933
10/01/2002 11:00 p 64.6 64.6 65.0 64.2 0.0 0.0 --- 0.00 29.941
10/01/2002 11:30 p 64.3 64.3 64.5 64.1 0.0 0.0 --- 0.00 29.942
10/02/2002 12:00 a 63.8 63.8 64.3 63.5 0.0 0.0 --- 0.00 29.934
10/02/2002 12:30 a 63.5 63.5 63.7 63.3 0.0 0.0 --- 0.00 29.930
10/02/2002 1:00 a 63.2 63.2 63.4 63.0 0.0 0.0 --- 0.00 29.933
10/02/2002 1:30 a 63.0 63.0 63.2 62.6 0.0 0.0 --- 0.00 29.930
10/02/2002 2:00 a 62.4 62.4 62.6 62.3 0.0 0.0 --- 0.00 29.925
10/02/2002 2:30 a 62.2 62.2 62.4 62.0 0.0 0.0 --- 0.00 29.917
10/02/2002 3:00 a 61.9 61.9 62.1 61.7 0.0 0.0 --- 0.00 29.907
10/02/2002 3:30 a 61.9 61.9 62.0 61.7 0.0 0.0 --- 0.00 29.902
10/02/2002 4:00 a 61.8 61.8 62.0 61.3 0.0 0.0 --- 0.00 29.894
10/02/2002 4:30 a 61.1 61.1 61.4 60.8 0.0 0.0 --- 0.00 29.900
10/02/2002 5:00 a 61.0 61.0 61.1 60.8 0.0 0.0 --- 0.00 29.902
10/02/2002 5:30 a 61.0 61.0 61.3 60.8 0.0 0.0 --- 0.00 29.896
10/02/2002 6:00 a 60.9 60.9 61.1 60.7 0.0 0.0 --- 0.00 29.893
10/02/2002 6:30 a 60.6 60.6 60.7 60.4 0.0 0.0 --- 0.00 29.897
10/02/2002 7:00 a 60.6 60.6 61.0 60.3 0.0 0.0 --- 0.00 29.906
10/02/2002 7:30 a 61.2 61.2 61.6 60.9 0.0 0.0 --- 0.00 29.906
10/02/2002 8:00 a 62.3 62.3 63.6 61.4 0.0 0.0 --- 0.00 29.901
10/02/2002 8:30 a 64.7 64.7 65.7 63.6 0.0 0.0 --- 0.00 29.912
10/02/2002 9:00 a 66.8 66.8 67.9 65.7 0.0 0.0 --- 0.00 29.898
10/02/2002 9:30 a 68.9 68.9 69.9 67.8 0.0 0.0 --- 0.00 29.904
10/02/2002 10:00 a 70.9 70.9 72.0 69.9 0.0 2.0 NW 0.00 29.900
10/02/2002 10:30 a 73.0 73.0 74.1 71.9 0.0 1.0 NNW 0.00 29.885
10/02/2002 11:00 a 75.0 75.0 76.2 73.9 0.0 1.0 NNW 0.00 29.890
10/02/2002 11:30 a 77.2 77.2 78.5 76.2 0.0 2.0 NW 0.00 29.877
10/02/2002 12:00 p 79.5 79.5 80.7 78.3 0.0 2.0 WNW 0.00 29.864
10/02/2002 12:30 p 81.5 81.5 82.8 80.3 0.0 4.0 WSW 0.00 29.853
10/02/2002 1:00 p 83.5 83.5 84.5 82.1 0.0 2.0 W 0.00 29.835
10/02/2002 1:30 p 84.1 84.1 85.1 83.5 0.0 3.0 SW 0.00 29.826
10/02/2002 2:00 p 84.4 84.4 85.2 83.3 0.0 4.0 S 0.00 29.813
10/02/2002 2:30 p 85.0 85.0 85.5 84.4 0.0 4.0 S 0.00 29.808
10/02/2002 3:00 p 85.1 85.1 85.9 84.3 0.0 2.0 WSW 0.00 29.798
10/02/2002 3:30 p 84.8 84.8 85.8 83.2 0.0 4.0 SW 0.00 29.783
10/02/2002 4:00 p 83.4 83.4 84.3 82.7 0.0 2.0 W 0.00 29.784
10/02/2002 4:30 p 82.6 82.6 83.1 81.9 0.0 2.0 WNW 0.00 29.781
10/02/2002 5:00 p 81.6 81.6 82.4 80.2 0.0 1.0 WSW 0.00 29.778
10/02/2002 5:30 p 80.1 80.1 80.5 79.0 0.0 1.0 W 0.00 29.783
10/02/2002 6:00 p 78.4 78.4 79.0 77.4 0.0 1.0 --- 0.00 29.783
10/02/2002 6:30 p 76.4 76.4 77.4 75.2 0.0 0.0 --- 0.00 29.788
10/02/2002 7:00 p 74.9 74.9 75.9 74.2 0.0 0.0 --- 0.00 29.790
10/02/2002 7:30 p 75.3 75.3 76.3 74.6 0.0 0.0 --- 0.00 29.793
10/02/2002 8:00 p 74.6 74.6 76.1 73.2 0.0 0.0 --- 0.00 29.792
10/02/2002 8:30 p 75.0 75.0 76.5 73.4 0.0 0.0 --- 0.00 29.794
10/02/2002 9:00 p 72.0 72.0 73.4 71.3 0.0 0.0 --- 0.00 29.800
10/02/2002 9:30 p 70.4 70.4 71.3 69.6 0.0 0.0 --- 0.00 29.793
10/02/2002 10:00 p 69.3 69.3 69.6 69.0 0.0 0.0 --- 0.00 29.801
10/02/2002 10:30 p 69.3 69.3 69.7 68.6 0.0 1.0 --- 0.00 29.800
10/02/2002 11:00 p 68.3 68.3 68.7 67.6 0.0 0.0 --- 0.00 29.798
10/02/2002 11:30 p 67.8 67.8 68.0 67.4 0.0 0.0 --- 0.00 29.793
10/03/2002 12:00 a 67.3 67.3 67.4 67.0 0.0 0.0 --- 0.00 29.786
10/03/2002 12:30 a 66.8 66.8 67.1 66.6 0.0 0.0 --- 0.00 29.790
10/03/2002 1:00 a 68.2 68.2 71.9 66.5 0.0 0.0 --- 0.00 29.788
10/03/2002 1:30 a 67.6 67.6 69.5 66.4 0.0 0.0 --- 0.00 29.776
10/03/2002 2:00 a 66.3 66.3 66.6 65.9 0.0 0.0 --- 0.00 29.782
10/03/2002 2:30 a 66.2 66.2 66.5 65.8 0.0 0.0 --- 0.00 29.787
10/03/2002 3:00 a 65.4 65.4 65.8 64.9 0.0 0.0 --- 0.00 29.773
10/03/2002 3:30 a 64.9 64.9 65.1 64.7 0.0 0.0 --- 0.00 29.764
10/03/2002 4:00 a 64.7 64.7 64.9 64.7 0.0 0.0 --- 0.00 29.766
10/03/2002 4:30 a 64.7 64.7 64.9 64.6 0.0 0.0 --- 0.00 29.770
10/03/2002 5:00 a 64.4 64.4 64.6 64.1 0.0 0.0 --- 0.00 29.769
10/03/2002 5:30 a 64.2 64.2 64.3 64.1 0.0 0.0 --- 0.00 29.768
10/03/2002 6:00 a 64.1 64.1 64.2 64.0 0.0 0.0 --- 0.00 29.780
10/03/2002 6:30 a 64.1 64.1 64.2 63.9 0.0 0.0 --- 0.00 29.791
10/03/2002 7:00 a 63.9 63.9 64.1 63.7 0.0 0.0 --- 0.00 29.797
10/03/2002 7:30 a 64.2 64.2 64.6 63.7 0.0 0.0 --- 0.00 29.800
10/03/2002 8:00 a 65.4 65.4 66.6 64.6 0.0 0.0 --- 0.00 29.800
10/03/2002 8:30 a 68.1 68.1 69.2 66.6 0.0 0.0 --- 0.00 29.799
10/03/2002 9:00 a 70.2 70.2 71.3 69.2 0.0 0.0 --- 0.00 29.807
10/03/2002 9:30 a 72.1 72.1 73.2 71.4 0.0 2.0 W 0.00 29.811
10/03/2002 10:00 a 73.7 73.7 74.5 73.1 0.0 1.0 --- 0.00 29.814
10/03/2002 10:30 a 75.3 75.3 75.8 74.4 0.0 3.0 SE 0.00 29.818
10/03/2002 11:00 a 76.9 76.9 78.2 75.7 0.0 4.0 SW 0.00 29.818
10/03/2002 11:30 a 79.1 79.1 79.8 77.9 0.0 3.0 SW 0.00 29.820
10/03/2002 12:00 p 80.6 80.6 82.0 79.1 0.0 3.0 SSW 0.00 29.814
10/03/2002 12:30 p 82.2 82.2 84.0 80.0 0.0 3.0 SSW 0.00 29.811
10/03/2002 1:00 p 83.0 83.0 84.1 81.4 1.0 4.0 SW 0.00 29.808
10/03/2002 1:30 p 81.7 81.7 84.0 80.3 0.0 6.0 SW 0.00 29.812
10/03/2002 2:00 p 82.0 82.0 84.4 80.7 0.0 1.0 SW 0.00 29.809
10/03/2002 2:30 p 82.2 82.2 84.8 81.0 0.0 3.0 SW 0.00 29.813
10/03/2002 3:00 p 81.0 81.0 82.3 80.3 0.0 3.0 SW 0.00 29.819
10/03/2002 3:30 p 80.5 80.5 81.6 79.6 0.0 2.0 SW 0.00 29.825
10/03/2002 4:00 p 79.2 79.2 80.1 78.7 0.0 2.0 SW 0.00 29.830
10/03/2002 4:30 p 79.0 79.0 79.5 78.1 0.0 1.0 SW 0.00 29.850
10/03/2002 5:00 p 77.4 77.4 78.1 76.8 0.0 2.0 SW 0.00 29.859
10/03/2002 5:30 p 77.0 77.0 78.5 76.0 0.0 3.0 SSW 0.00 29.873
10/03/2002 6:00 p 75.5 75.5 77.4 74.1 0.0 2.0 --- 0.00 29.888
10/03/2002 6:30 p 72.5 72.5 74.3 71.5 0.0 2.0 SSW 0.00 29.909
10/03/2002 7:00 p 70.7 70.7 71.5 70.1 0.0 3.0 SSW 0.00 29.923
10/03/2002 7:30 p 70.2 70.2 72.7 69.4 0.0 1.0 SE 0.00 29.940
10/03/2002 8:00 p 72.2 72.2 73.8 70.9 0.0 2.0 SE 0.00 29.959
10/03/2002 8:30 p 69.1 69.1 71.6 67.5 0.0 2.0 SE 0.00 29.974
10/03/2002 9:00 p 66.5 66.5 67.5 65.8 0.0 1.0 SE 0.00 29.978
10/03/2002 9:30 p 65.3 65.3 65.9 64.9 0.0 2.0 SE 0.00 29.987
10/03/2002 10:00 p 65.1 65.1 65.7 64.8 0.0 2.0 SE 0.00 29.993
10/03/2002 10:30 p 65.6 65.6 65.8 65.4 1.0 4.0 E 0.00 30.008
10/03/2002 11:00 p 65.3 65.3 65.6 64.9 1.0 3.0 E 0.00 30.011
10/03/2002 11:30 p 64.3 64.3 64.9 63.7 0.0 4.0 E 0.00 30.007
10/04/2002 12:00 a 63.5 63.5 63.9 63.3 0.0 3.0 E 0.00 30.010
10/04/2002 12:30 a 63.4 63.4 63.6 63.1 0.0 2.0 ESE 0.00 30.006
10/04/2002 1:00 a 63.1 63.1 63.4 62.7 0.0 2.0 S 0.00 30.011
10/04/2002 1:30 a 62.8 62.8 62.9 62.6 0.0 3.0 SSE 0.00 30.019
10/04/2002 2:00 a 62.3 62.3 62.8 61.8 0.0 2.0 S 0.02 30.019
10/04/2002 2:30 a 61.6 61.6 61.9 61.2 0.0 2.0 E 0.00 30.013
10/04/2002 3:00 a 61.3 61.3 61.5 61.1 0.0 2.0 ESE 0.00 30.008
10/04/2002 3:30 a 61.3 61.3 61.5 61.1 0.0 3.0 ESE 0.00 30.009
10/04/2002 4:00 a 61.2 61.2 61.4 61.1 0.0 1.0 SSE 0.00 30.016
10/04/2002 4:30 a 61.3 61.3 61.5 61.1 0.0 3.0 SSE 0.00 30.023
10/04/2002 5:00 a 61.1 61.1 61.3 60.8 0.0 2.0 SE 0.00 30.021
10/04/2002 5:30 a 60.9 60.9 61.0 60.7 0.0 3.0 SE 0.00 30.021
10/04/2002 6:00 a 60.8 60.8 60.9 60.7 0.0 1.0 SE 0.00 30.031
10/04/2002 6:30 a 60.8 60.8 60.9 60.7 0.0 2.0 SE 0.00 30.034
10/04/2002 7:00 a 60.9 60.9 61.0 60.8 0.0 2.0 SE 0.00 30.043
10/04/2002 7:30 a 61.0 61.0 61.1 60.9 0.0 2.0 SE 0.00 30.046
10/04/2002 8:00 a 60.9 60.9 61.1 60.8 0.0 3.0 ESE 0.00 30.056
10/04/2002 8:30 a 60.9 60.9 61.1 60.8 0.0 3.0 SW 0.00 30.050
10/04/2002 9:00 a 61.0 61.0 61.1 60.9 0.0 3.0 SE 0.00 30.055
10/04/2002 9:30 a 61.0 61.0 61.1 60.9 0.0 4.0 ESE 0.00 30.057
10/04/2002 10:00 a 61.2 61.2 61.5 61.0 0.0 2.0 S 0.00 30.056
10/04/2002 10:30 a 61.6 61.6 61.7 61.3 0.0 3.0 S 0.00 30.044
10/04/2002 11:00 a 61.8 61.8 62.0 61.6 0.0 1.0 --- 0.00 30.038
10/04/2002 11:30 a 63.1 63.1 64.4 62.0 0.0 2.0 S 0.00 30.031
10/04/2002 12:00 p 62.5 62.5 64.4 62.4 0.0 1.0 S 0.00 30.020
10/04/2002 12:30 p 63.9 63.9 65.9 63.2 0.0 2.0 S 0.00 30.010
10/04/2002 1:00 p 63.2 63.2 63.5 63.0 0.0 1.0 --- 0.00 29.993
10/04/2002 1:30 p 63.6 63.6 63.8 63.4 0.0 2.0 S 0.00 29.975
10/04/2002 2:00 p 63.8 63.8 64.0 63.7 0.0 2.0 SSE 0.00 29.963
10/04/2002 2:30 p 63.9 63.9 64.0 63.7 0.0 1.0 SSE 0.00 29.945
10/04/2002 3:00 p 64.2 64.2 64.4 64.0 0.0 2.0 SSE 0.00 29.937
10/04/2002 3:30 p 64.5 64.5 64.7 64.2 0.0 1.0 SSE 0.00 29.916
10/04/2002 4:00 p 65.0 65.0 65.1 64.7 0.0 0.0 --- 0.00 29.907
10/04/2002 4:30 p 65.4 65.4 65.7 65.1 0.0 0.0 --- 0.00 29.893
10/04/2002 5:00 p 65.7 65.7 65.8 65.6 0.0 0.0 --- 0.00 29.879
10/04/2002 5:30 p 66.1 66.1 66.7 65.7 0.0 0.0 --- 0.00 29.865
10/04/2002 6:00 p 66.1 66.1 67.0 65.5 0.0 0.0 --- 0.00 29.859
10/04/2002 6:30 p 65.9 65.9 66.1 65.7 0.0 0.0 --- 0.00 29.854
10/04/2002 7:00 p 67.8 67.8 70.6 65.7 0.0 0.0 --- 0.00 29.856
10/04/2002 7:30 p 67.2 67.2 70.3 65.9 0.0 0.0 --- 0.00 29.844
10/04/2002 8:00 p 66.1 66.1 66.4 65.9 0.0 0.0 --- 0.00 29.838
10/04/2002 8:30 p 67.3 67.3 69.3 66.4 0.0 1.0 SSE 0.00 29.828
10/04/2002 9:00 p 69.8 69.8 70.2 69.1 0.0 1.0 ESE 0.00 29.817
10/04/2002 9:30 p 70.3 70.3 70.5 70.1 0.0 2.0 ESE 0.00 29.796
10/04/2002 10:00 p 70.5 70.5 70.7 70.2 0.0 3.0 ENE 0.00 29.782
10/04/2002 10:30 p 70.4 70.4 70.5 70.3 0.0 2.0 NE 0.00 29.756
10/04/2002 11:00 p 70.6 70.6 70.8 70.4 0.0 3.0 ENE 0.00 29.745
10/04/2002 11:30 p 71.0 71.0 71.1 70.8 0.0 3.0 ENE 0.00 29.742
10/05/2002 12:00 a 71.0 71.0 71.3 70.7 0.0 1.0 ENE 0.00 29.732
10/05/2002 12:30 a 71.2 71.2 71.5 70.9 0.0 7.0 ENE 0.00 29.720
10/05/2002 1:00 a 71.4 71.4 71.5 71.1 0.0 2.0 W 0.00 29.713
10/05/2002 1:30 a 71.6 71.6 72.1 71.2 0.0 2.0 W 0.00 29.703
10/05/2002 2:00 a 72.0 72.0 72.6 71.5 0.0 3.0 W 0.00 29.681
10/05/2002 2:30 a 72.1 72.1 72.4 71.8 0.0 2.0 ENE 0.00 29.670
10/05/2002 3:00 a 72.2 72.2 72.5 72.0 0.0 3.0 NW 0.00 29.657
10/05/2002 3:30 a 71.7 71.7 72.3 70.8 0.0 2.0 NE 0.00 29.652
10/05/2002 4:00 a 70.7 70.7 70.9 70.6 0.0 1.0 NNW 0.00 29.651
10/05/2002 4:30 a 70.8 70.8 71.0 70.6 0.0 1.0 NW 0.00 29.649
10/05/2002 5:00 a 71.1 71.1 71.4 70.8 0.0 2.0 NW 0.00 29.649
10/05/2002 5:30 a 71.6 71.6 72.0 71.1 0.0 2.0 NNE 0.00 29.656
10/05/2002 6:00 a 71.2 71.2 71.9 70.7 0.0 2.0 NNE 0.00 29.666
10/05/2002 6:30 a 70.7 70.7 70.8 70.6 0.0 0.0 --- 0.00 29.673
10/05/2002 7:00 a 70.2 70.2 70.6 69.8 0.0 0.0 --- 0.00 29.682
10/05/2002 7:30 a 69.8 69.8 69.9 69.6 0.0 0.0 --- 0.00 29.697
10/05/2002 8:00 a 70.2 70.2 70.7 69.9 0.0 1.0 --- 0.00 29.712
10/05/2002 8:30 a 71.4 71.4 72.2 70.6 0.0 1.0 NNE 0.00 29.721
10/05/2002 9:00 a 72.9 72.9 73.5 72.2 0.0 2.0 N 0.00 29.725
10/05/2002 9:30 a 74.5 74.5 76.4 73.4 0.0 3.0 W 0.00 29.734
10/05/2002 10:00 a 76.3 76.3 77.2 75.8 0.0 3.0 SSE 0.00 29.730
10/05/2002 10:30 a 76.1 76.1 77.2 75.6 0.0 4.0 SE 0.00 29.738
10/05/2002 11:00 a 77.7 77.7 78.6 76.9 1.0 6.0 SW 0.00 29.741
10/05/2002 11:30 a 79.0 79.0 79.7 77.9 1.0 6.0 WSW 0.00 29.740
10/05/2002 12:00 p 80.5 80.5 81.5 79.4 1.0 5.0 SW 0.00 29.743
10/05/2002 12:30 p 82.0 82.0 83.6 79.6 1.0 4.0 SSW 0.00 29.739
10/05/2002 1:00 p 81.7 81.7 83.6 80.3 1.0 6.0 SW 0.00 29.730
10/05/2002 1:30 p 84.0 84.0 85.8 81.0 0.0 4.0 SW 0.00 29.722
10/05/2002 2:00 p 82.6 82.6 84.8 79.9 1.0 5.0 SW 0.00 29.724
10/05/2002 2:30 p 80.9 80.9 83.9 78.7 0.0 5.0 NNE 0.00 29.729
10/05/2002 3:00 p 83.2 83.2 84.1 81.8 0.0 6.0 SW 0.00 29.735
10/05/2002 3:30 p 80.7 80.7 82.1 79.8 1.0 7.0 SW 0.00 29.741
10/05/2002 4:00 p 80.9 80.9 81.3 80.3 1.0 6.0 SW 0.00 29.744
10/05/2002 4:30 p 80.7 80.7 81.9 79.9 1.0 4.0 SW 0.00 29.753
10/05/2002 5:00 p 79.4 79.4 79.9 78.6 0.0 5.0 SW 0.00 29.769
10/05/2002 5:30 p 78.1 78.1 80.1 77.1 0.0 5.0 SW 0.00 29.784
10/05/2002 6:00 p 76.3 76.3 77.3 75.5 1.0 4.0 SW 0.00 29.808
10/05/2002 6:30 p 74.5 74.5 75.6 73.3 0.0 4.0 SW 0.00 29.828
10/05/2002 7:00 p 72.8 72.8 73.9 71.1 0.0 2.0 SSE 0.00 29.849
10/05/2002 7:30 p 70.1 70.1 71.7 68.7 0.0 1.0 SSE 0.00 29.870
10/05/2002 8:00 p 69.4 69.4 70.8 68.2 0.0 5.0 SW 0.00 29.896
10/05/2002 8:30 p 69.6 69.6 70.0 68.6 1.0 5.0 SW 0.00 29.921
10/05/2002 9:00 p 68.2 68.2 69.2 67.3 1.0 5.0 SW 0.00 29.943
10/05/2002 9:30 p 66.6 66.6 67.3 65.8 1.0 6.0 SW 0.00 29.966
10/05/2002 10:00 p 65.3 65.3 65.8 64.7 2.0 8.0 SW 0.00 29.987
10/05/2002 10:30 p 64.1 64.1 64.6 63.4 1.0 8.0 SW 0.00 30.000
10/05/2002 11:00 p 63.1 63.1 63.5 62.8 1.0 7.0 SW 0.00 30.006
10/05/2002 11:30 p 62.3 62.3 62.7 61.8 1.0 6.0 SW 0.00 30.011
10/06/2002 12:00 a 61.5 61.5 62.0 61.1 1.0 6.0 SW 0.00 30.021
10/06/2002 12:30 a 60.7 60.7 61.2 60.3 0.0 3.0 SW 0.00 30.024
10/06/2002 1:00 a 59.6 59.6 60.6 57.8 0.0 3.0 WSW 0.00 30.034
10/06/2002 1:30 a 56.4 56.4 57.8 55.1 0.0 0.0 --- 0.00 30.042
10/06/2002 2:00 a 54.7 54.7 55.2 54.2 0.0 0.0 --- 0.00 30.048
10/06/2002 2:30 a 53.6 53.6 54.2 53.0 0.0 0.0 --- 0.00 30.053
10/06/2002 3:00 a 52.4 52.4 53.2 51.9 0.0 1.0 --- 0.00 30.053
10/06/2002 3:30 a 51.7 51.7 52.2 51.3 0.0 0.0 --- 0.00 30.057
10/06/2002 4:00 a 51.0 51.0 51.9 50.2 0.0 1.0 --- 0.00 30.068
10/06/2002 4:30 a 50.5 50.5 51.0 49.8 0.0 0.0 --- 0.00 30.079
10/06/2002 5:00 a 49.5 49.5 49.9 49.1 0.0 0.0 --- 0.00 30.090
10/06/2002 5:30 a 49.4 49.4 49.6 48.9 0.0 0.0 --- 0.00 30.095
10/06/2002 6:00 a 48.8 48.8 49.2 48.3 0.0 0.0 --- 0.00 30.108
10/06/2002 6:30 a 48.5 48.5 49.0 48.1 0.0 0.0 --- 0.00 30.115
10/06/2002 7:00 a 48.5 48.5 49.3 48.0 0.0 0.0 --- 0.00 30.122
10/06/2002 7:30 a 48.4 48.4 48.8 47.9 0.0 0.0 --- 0.00 30.134
10/06/2002 8:00 a 49.8 49.8 51.3 48.6 0.0 0.0 --- 0.00 30.146
10/06/2002 8:30 a 53.5 53.5 55.3 51.3 0.0 0.0 --- 0.00 30.149
10/06/2002 9:00 a 56.9 56.9 57.9 55.3 0.0 2.0 WSW 0.00 30.149
10/06/2002 9:30 a 58.7 58.7 59.5 57.9 0.0 3.0 WSW 0.00 30.150
10/06/2002 10:00 a 60.3 60.3 61.1 59.5 0.0 4.0 SW 0.00 30.137
10/06/2002 10:30 a 61.9 61.9 62.9 61.0 0.0 4.0 SW 0.00 30.134
10/06/2002 11:00 a 63.5 63.5 64.1 62.9 0.0 2.0 ESE 0.00 30.132
10/06/2002 11:30 a 65.0 65.0 65.7 64.1 0.0 3.0 ESE 0.00 30.130
10/06/2002 12:00 p 67.4 67.4 68.7 65.9 0.0 3.0 ESE 0.00 30.126
10/06/2002 12:30 p 69.2 69.2 70.2 68.2 0.0 3.0 ESE 0.00 30.115
10/06/2002 1:00 p 70.0 70.0 70.7 69.4 1.0 4.0 E 0.00 30.107
10/06/2002 1:30 p 70.0 70.0 71.3 69.1 1.0 5.0 E 0.00 30.093
10/06/2002 2:00 p 70.0 70.0 71.5 69.1 1.0 5.0 E 0.00 30.079
10/06/2002 2:30 p 70.3 70.3 71.1 69.4 1.0 4.0 ENE 0.00 30.072
10/06/2002 3:00 p 69.2 69.2 70.0 68.3 2.0 6.0 E 0.00 30.072
10/06/2002 3:30 p 67.9 67.9 69.1 66.5 1.0 4.0 E 0.00 30.064
10/06/2002 4:00 p 67.1 67.1 68.3 66.3 1.0 5.0 ENE 0.00 30.057
10/06/2002 4:30 p 66.4 66.4 67.2 65.3 1.0 4.0 E 0.00 30.060
10/06/2002 5:00 p 65.4 65.4 66.3 64.7 1.0 4.0 E 0.00 30.048
10/06/2002 5:30 p 64.9 64.9 66.4 63.7 1.0 6.0 E 0.00 30.050
10/06/2002 6:00 p 63.7 63.7 64.2 63.3 2.0 6.0 E 0.00 30.037
10/06/2002 6:30 p 63.2 63.2 63.4 63.1 2.0 5.0 E 0.00 30.034
10/06/2002 7:00 p 62.9 62.9 63.1 62.7 1.0 4.0 E 0.00 30.036
10/06/2002 7:30 p 62.6 62.6 62.8 62.4 1.0 4.0 E 0.00 30.037
10/06/2002 8:00 p 62.3 62.3 62.5 62.1 1.0 5.0 ENE 0.00 30.031
10/06/2002 8:30 p 62.0 62.0 62.2 61.8 1.0 4.0 ENE 0.00 30.026
10/06/2002 9:00 p 61.7 61.7 61.9 61.4 0.0 2.0 ENE 0.00 30.026
10/06/2002 9:30 p 61.4 61.4 61.6 61.1 0.0 2.0 ENE 0.00 30.014
10/06/2002 10:00 p 60.4 60.4 61.1 59.6 0.0 2.0 ENE 0.00 29.999
10/06/2002 10:30 p 59.8 59.8 60.1 59.5 0.0 1.0 ENE 0.00 30.001
10/06/2002 11:00 p 59.3 59.3 59.9 58.8 0.0 0.0 --- 0.00 29.991
10/06/2002 11:30 p 60.3 60.3 61.0 59.8 0.0 1.0 ENE 0.00 29.981
10/07/2002 12:00 a 60.9 60.9 61.5 60.4 0.0 1.0 ENE 0.00 29.986
10/07/2002 12:30 a 61.3 61.3 61.8 61.1 0.0 0.0 --- 0.00 29.963
10/07/2002 1:00 a 62.1 62.1 62.3 61.8 0.0 2.0 ENE 0.00 29.949
10/07/2002 1:30 a 62.4 62.4 62.5 62.1 0.0 2.0 ENE 0.00 29.940
10/07/2002 2:00 a 62.6 62.6 62.8 62.5 0.0 2.0 ENE 0.00 29.931
10/07/2002 2:30 a 62.8 62.8 62.8 62.7 0.0 2.0 ENE 0.00 29.917
10/07/2002 3:00 a 62.8 62.8 62.9 62.7 0.0 2.0 ENE 0.00 29.901
10/07/2002 3:30 a 62.7 62.7 62.9 62.5 0.0 0.0 --- 0.00 29.883
10/07/2002 4:00 a 62.6 62.6 62.8 62.5 0.0 1.0 ENE 0.00 29.871
10/07/2002 4:30 a 62.6 62.6 62.7 62.5 0.0 0.0 --- 0.00 29.862
10/07/2002 5:00 a 62.8 62.8 62.9 62.7 0.0 1.0 ENE 0.00 29.858
10/07/2002 5:30 a 63.1 63.1 63.2 62.9 0.0 1.0 --- 0.00 29.851
10/07/2002 6:00 a 63.1 63.1 63.2 62.9 0.0 1.0 --- 0.00 29.841
10/07/2002 6:30 a 62.9 62.9 63.0 62.8 0.0 0.0 --- 0.00 29.832
10/07/2002 7:00 a 63.0 63.0 63.1 62.9 0.0 0.0 --- 0.00 29.832
10/07/2002 7:30 a 63.1 63.1 63.5 63.0 0.0 0.0 --- 0.00 29.821
10/07/2002 8:00 a 64.0 64.0 64.2 63.5 0.0 0.0 --- 0.00 29.822
10/07/2002 8:30 a 64.9 64.9 65.7 64.1 0.0 1.0 ENE 0.00 29.821
10/07/2002 9:00 a 66.4 66.4 67.0 65.6 0.0 1.0 ENE 0.00 29.812
10/07/2002 9:30 a 66.9 66.9 67.3 66.6 0.0 1.0 ENE 0.00 29.806
10/07/2002 10:00 a 67.1 67.1 67.4 66.8 0.0 1.0 ENE 0.00 29.798
10/07/2002 10:30 a 68.8 68.8 70.2 67.2 0.0 1.0 ENE 0.00 29.796
10/07/2002 11:00 a 70.9 70.9 72.3 69.5 0.0 2.0 ENE 0.00 29.794
10/07/2002 11:30 a 70.2 70.2 71.3 69.5 0.0 3.0 ENE 0.00 29.795
10/07/2002 12:00 p 72.0 72.0 73.6 70.3 0.0 3.0 NW 0.00 29.791
10/07/2002 12:30 p 75.2 75.2 77.3 72.0 0.0 3.0 SSW 0.00 29.779
10/07/2002 1:00 p 76.2 76.2 77.8 73.7 0.0 3.0 SE 0.00 29.768
10/07/2002 1:30 p 77.3 77.3 78.8 76.0 1.0 5.0 SW 0.00 29.766
10/07/2002 2:00 p 77.2 77.2 78.4 75.2 1.0 5.0 SW 0.00 29.763
10/07/2002 2:30 p 77.2 77.2 79.3 74.4 0.0 3.0 SSE 0.00 29.762
10/07/2002 3:00 p 74.4 74.4 74.9 73.9 0.0 3.0 WSW 0.00 29.760
10/07/2002 3:30 p 74.1 74.1 74.7 73.5 0.0 2.0 WSW 0.00 29.762
10/07/2002 4:00 p 72.4 72.4 73.8 71.9 0.0 4.0 WSW 0.00 29.758
10/07/2002 4:30 p 72.1 72.1 72.8 71.6 1.0 7.0 SW 0.00 29.776
10/07/2002 5:00 p 70.8 70.8 71.7 70.2 0.0 4.0 SW 0.00 29.791
10/07/2002 5:30 p 69.7 69.7 70.3 68.7 0.0 5.0 SSW 0.00 29.802
10/07/2002 6:00 p 67.8 67.8 68.7 66.7 0.0 2.0 S 0.00 29.813
10/07/2002 6:30 p 66.3 66.3 67.0 64.9 0.0 2.0 S 0.00 29.825
10/07/2002 7:00 p 64.7 64.7 65.6 63.9 0.0 5.0 SW 0.00 29.844
10/07/2002 7:30 p 64.8 64.8 65.5 64.0 1.0 4.0 SW 0.00 29.859
10/07/2002 8:00 p 63.6 63.6 64.1 63.0 0.0 3.0 SW 0.00 29.871
10/07/2002 8:30 p 62.2 62.2 63.1 61.8 0.0 3.0 SW 0.00 29.883
10/07/2002 9:00 p 61.4 61.4 62.0 60.9 0.0 4.0 SW 0.00 29.894
10/07/2002 9:30 p 60.6 60.6 61.2 60.0 0.0 4.0 SW 0.00 29.904
10/07/2002 10:00 p 59.7 59.7 60.1 59.2 0.0 4.0 SW 0.00 29.921
10/07/2002 10:30 p 59.1 59.1 59.6 58.5 0.0 3.0 SW 0.00 29.924
10/07/2002 11:00 p 58.4 58.4 58.8 57.7 0.0 4.0 SW 0.00 29.928
10/07/2002 11:30 p 57.7 57.7 58.1 57.5 1.0 6.0 SW 0.00 29.937
10/08/2002 12:00 a 57.2 57.2 57.7 56.7 1.0 5.0 SW 0.00 29.957
10/08/2002 12:30 a 56.5 56.5 56.8 56.1 1.0 5.0 SW 0.00 29.965
10/08/2002 1:00 a 55.6 55.6 56.2 55.2 0.0 3.0 SW 0.00 29.978
10/08/2002 1:30 a 54.8 54.8 55.3 54.4 0.0 3.0 SW 0.00 29.996
10/08/2002 2:00 a 54.1 54.1 54.5 53.7 1.0 3.0 SW 0.00 30.007
10/08/2002 2:30 a 53.4 53.4 53.9 52.8 0.0 4.0 WSW 0.00 30.010
10/08/2002 3:00 a 52.5 52.5 53.2 51.6 0.0 2.0 SW 0.00 30.010
10/08/2002 3:30 a 50.7 50.7 51.9 49.4 0.0 2.0 SW 0.00 30.012
10/08/2002 4:00 a 48.5 48.5 49.4 47.4 0.0 0.0 --- 0.00 30.024
10/08/2002 4:30 a 48.5 48.5 49.8 47.2 0.0 2.0 SW 0.00 30.024
10/08/2002 5:00 a 48.6 48.6 49.8 47.7 0.0 2.0 SW 0.00 30.034
10/08/2002 5:30 a 49.4 49.4 49.9 48.8 0.0 2.0 SW 0.00 30.051
10/08/2002 6:00 a 48.0 48.0 49.4 46.7 0.0 0.0 --- 0.00 30.064
10/08/2002 6:30 a 46.8 46.8 47.6 46.0 0.0 1.0 SW 0.00 30.087
10/08/2002 7:00 a 46.9 46.9 47.3 46.0 0.0 1.0 SW 0.00 30.099
10/08/2002 7:30 a 46.6 46.6 47.2 45.8 0.0 2.0 SW 0.00 30.110
10/08/2002 8:00 a 48.4 48.4 49.5 46.9 0.0 3.0 SW 0.00 30.115
10/08/2002 8:30 a 50.3 50.3 51.2 49.3 0.0 4.0 SW 0.00 30.131
10/08/2002 9:00 a 51.8 51.8 52.5 51.2 0.0 5.0 SW 0.00 30.126
10/08/2002 9:30 a 52.9 52.9 53.5 52.4 0.0 4.0 SW 0.00 30.140
10/08/2002 10:00 a 54.4 54.4 55.2 53.4 0.0 2.0 SW 0.00 30.151
10/08/2002 10:30 a 55.8 55.8 56.4 55.0 0.0 4.0 SSE 0.00 30.148
10/08/2002 11:00 a 57.0 57.0 58.0 55.9 0.0 4.0 SW 0.00 30.153
10/08/2002 11:30 a 58.6 58.6 59.5 57.7 0.0 3.0 SSE 0.00 30.146
10/08/2002 12:00 p 60.6 60.6 62.2 58.0 0.0 2.0 SE 0.00 30.145
10/08/2002 12:30 p 62.5 62.5 64.2 59.9 1.0 3.0 SE 0.00 30.143
10/08/2002 1:00 p 63.1 63.1 64.6 61.7 1.0 3.0 E 0.00 30.135
10/08/2002 1:30 p 63.0 63.0 64.4 61.8 1.0 3.0 E 0.00 30.124
10/08/2002 2:00 p 63.2 63.2 64.6 61.7 0.0 4.0 SW 0.00 30.123
10/08/2002 2:30 p 64.2 64.2 65.7 61.4 0.0 4.0 SW 0.00 30.107
10/08/2002 3:00 p 63.2 63.2 65.8 61.4 0.0 3.0 SW 0.00 30.107
10/08/2002 3:30 p 62.5 62.5 63.9 61.7 0.0 3.0 SSW 0.00 30.107
10/08/2002 4:00 p 61.9 61.9 62.6 61.6 0.0 2.0 SSW 0.00 30.101
10/08/2002 4:30 p 61.3 61.3 61.8 60.4 0.0 2.0 S 0.00 30.100
10/08/2002 5:00 p 60.4 60.4 61.1 59.7 0.0 1.0 SSE 0.00 30.101
10/08/2002 5:30 p 59.4 59.4 60.0 58.7 0.0 0.0 --- 0.00 30.096
10/08/2002 6:00 p 57.9 57.9 58.7 56.9 0.0 1.0 --- 0.00 30.101
10/08/2002 6:30 p 55.7 55.7 56.9 54.4 0.0 0.0 --- 0.00 30.109
10/08/2002 7:00 p 53.5 53.5 54.4 52.3 0.0 0.0 --- 0.00 30.111
10/08/2002 7:30 p 51.8 51.8 52.4 50.8 0.0 0.0 --- 0.00 30.120
10/08/2002 8:00 p 50.7 50.7 51.0 50.0 0.0 0.0 --- 0.00 30.118
10/08/2002 8:30 p 49.7 49.7 50.3 49.1 0.0 0.0 --- 0.00 30.129
10/08/2002 9:00 p 49.1 49.1 49.9 48.7 0.0 0.0 --- 0.00 30.132
10/08/2002 9:30 p 50.7 50.7 54.2 48.9 0.0 0.0 --- 0.00 30.140
10/08/2002 10:00 p 48.0 48.0 50.2 47.4 0.0 0.0 --- 0.00 30.141
10/08/2002 10:30 p 47.4 47.4 48.1 46.9 0.0 0.0 --- 0.00 30.145
10/08/2002 11:00 p 47.1 47.1 47.6 46.6 0.0 0.0 --- 0.00 30.152
10/08/2002 11:30 p 46.8 46.8 47.3 46.5 0.0 0.0 --- 0.00 30.156
10/09/2002 12:00 a 46.4 46.4 47.3 46.0 0.0 0.0 --- 0.00 30.153
10/09/2002 12:30 a 45.7 45.7 46.3 45.3 0.0 0.0 --- 0.00 30.163
10/09/2002 1:00 a 45.4 45.4 45.7 45.0 0.0 0.0 --- 0.00 30.158
10/09/2002 1:30 a 45.4 45.4 45.9 45.1 0.0 0.0 --- 0.00 30.152
10/09/2002 2:00 a 45.1 45.1 45.6 44.6 0.0 0.0 --- 0.00 30.160
10/09/2002 2:30 a 45.3 45.3 45.6 44.9 0.0 0.0 --- 0.00 30.154
10/09/2002 3:00 a 45.2 45.2 45.5 44.8 0.0 0.0 --- 0.00 30.155
10/09/2002 3:30 a 45.0 45.0 45.4 44.6 0.0 0.0 --- 0.00 30.151
10/09/2002 4:00 a 44.4 44.4 45.1 44.0 0.0 0.0 --- 0.00 30.152
10/09/2002 4:30 a 44.3 44.3 44.6 43.8 0.0 0.0 --- 0.00 30.148
10/09/2002 5:00 a 43.8 43.8 44.2 43.4 0.0 0.0 --- 0.00 30.150
10/09/2002 5:30 a 43.6 43.6 43.9 43.2 0.0 0.0 --- 0.00 30.154
10/09/2002 6:00 a 43.6 43.6 44.0 43.3 0.0 0.0 --- 0.00 30.161
10/09/2002 6:30 a 43.7 43.7 44.1 43.3 0.0 0.0 --- 0.00 30.171
10/09/2002 7:00 a 44.1 44.1 44.2 43.8 0.0 0.0 --- 0.00 30.184
10/09/2002 7:30 a 45.0 45.0 45.7 44.1 0.0 0.0 --- 0.00 30.183
10/09/2002 8:00 a 46.8 46.8 48.3 45.7 0.0 0.0 --- 0.00 30.194
10/09/2002 8:30 a 50.0 50.0 51.6 48.3 0.0 0.0 --- 0.00 30.191
10/09/2002 9:00 a 52.5 52.5 53.4 51.6 0.0 1.0 --- 0.00 30.191
10/09/2002 9:30 a 54.4 54.4 55.7 53.4 0.0 2.0 S 0.00 30.192
10/09/2002 10:00 a 56.5 56.5 57.2 55.7 0.0 1.0 S 0.00 30.192
10/09/2002 10:30 a 57.9 57.9 59.0 57.1 0.0 2.0 S 0.00 30.189
10/09/2002 11:00 a 60.5 60.5 61.5 59.0 0.0 3.0 SSW 0.00 30.187
10/09/2002 11:30 a 62.1 62.1 62.6 61.2 0.0 1.0 SSE 0.00 30.174
10/09/2002 12:00 p 61.5 61.5 61.9 61.0 0.0 0.0 --- 0.00 30.169
10/09/2002 12:30 p 63.4 63.4 64.7 61.9 0.0 3.0 E 0.00 30.163
10/09/2002 1:00 p 64.2 64.2 66.1 63.6 1.0 4.0 E 0.00 30.157
10/09/2002 1:30 p 65.3 65.3 66.2 64.5 1.0 5.0 E 0.00 30.141
10/09/2002 2:00 p 65.2 65.2 66.4 64.1 1.0 4.0 ENE 0.00 30.144
10/09/2002 2:30 p 65.3 65.3 66.5 64.4 1.0 4.0 ENE 0.00 30.136
10/09/2002 3:00 p 63.7 63.7 64.6 63.2 1.0 3.0 E 0.00 30.128
10/09/2002 3:30 p 63.1 63.1 64.1 62.0 1.0 5.0 E 0.00 30.132
10/09/2002 4:00 p 61.9 61.9 62.1 61.5 1.0 5.0 E 0.00 30.134
10/09/2002 4:30 p 61.4 61.4 61.5 61.1 1.0 3.0 E 0.00 30.137
10/09/2002 5:00 p 60.9 60.9 61.1 60.7 1.0 3.0 E 0.00 30.143
10/09/2002 5:30 p 60.5 60.5 60.8 60.3 0.0 3.0 E 0.00 30.142
10/09/2002 6:00 p 60.3 60.3 60.5 60.2 0.0 4.0 E 0.00 30.142
10/09/2002 6:30 p 60.1 60.1 60.3 59.9 1.0 5.0 E 0.00 30.137
10/09/2002 7:00 p 60.0 60.0 60.1 59.8 1.0 6.0 E 0.00 30.145
10/09/2002 7:30 p 59.8 59.8 59.9 59.6 1.0 4.0 E 0.00 30.142
10/09/2002 8:00 p 59.8 59.8 59.8 59.7 0.0 2.0 E 0.00 30.141
10/09/2002 8:30 p 60.6 60.6 62.3 59.7 0.0 2.0 E 0.00 30.144
10/09/2002 9:00 p 61.1 61.1 63.4 59.5 0.0 1.0 E 0.00 30.142
10/09/2002 9:30 p 59.3 59.3 59.6 59.1 0.0 0.0 --- 0.00 30.150
10/09/2002 10:00 p 59.0 59.0 59.2 58.9 0.0 0.0 --- 0.00 30.143
10/09/2002 10:30 p 59.0 59.0 59.2 58.9 0.0 0.0 --- 0.00 30.142
10/09/2002 11:00 p 59.2 59.2 59.3 59.0 0.0 0.0 --- 0.00 30.142
10/09/2002 11:30 p 59.3 59.3 59.5 59.0 0.0 0.0 --- 0.00 30.132
10/10/2002 12:00 a 59.4 59.4 59.7 59.2 0.0 0.0 --- 0.00 30.128
10/10/2002 12:30 a 59.3 59.3 59.6 59.1 0.0 0.0 --- 0.00 30.137
10/10/2002 1:00 a 59.3 59.3 59.5 59.1 0.0 0.0 --- 0.00 30.141
10/10/2002 1:30 a 59.1 59.1 59.3 58.9 0.0 0.0 --- 0.00 30.141
10/10/2002 2:00 a 58.9 58.9 59.2 58.6 0.0 0.0 --- 0.00 30.143
10/10/2002 2:30 a 58.7 58.7 59.1 58.4 0.0 0.0 --- 0.00 30.142
10/10/2002 3:00 a 58.6 58.6 59.1 58.3 0.0 0.0 --- 0.00 30.137
10/10/2002 3:30 a 58.3 58.3 58.7 58.1 0.0 0.0 --- 0.00 30.130
10/10/2002 4:00 a 58.5 58.5 58.7 58.2 0.0 0.0 --- 0.00 30.136
10/10/2002 4:30 a 58.9 58.9 59.5 58.4 0.0 0.0 --- 0.00 30.135
10/10/2002 5:00 a 59.2 59.2 59.5 58.8 0.0 0.0 --- 0.00 30.138
10/10/2002 5:30 a 58.9 58.9 59.1 58.7 0.0 0.0 --- 0.00 30.141
10/10/2002 6:00 a 59.0 59.0 59.2 58.9 0.0 0.0 --- 0.00 30.150
10/10/2002 6:30 a 59.1 59.1 59.2 58.9 0.0 0.0 --- 0.00 30.152
10/10/2002 7:00 a 59.1 59.1 59.2 59.0 0.0 0.0 --- 0.00 30.160
10/10/2002 7:30 a 59.1 59.1 59.2 58.9 0.0 1.0 --- 0.00 30.167
10/10/2002 8:00 a 59.2 59.2 59.6 59.1 0.0 0.0 --- 0.00 30.164
10/10/2002 8:30 a 59.6 59.6 59.7 59.5 0.0 0.0 --- 0.00 30.176
10/10/2002 9:00 a 59.7 59.7 60.0 59.5 0.0 1.0 --- 0.00 30.182
10/10/2002 9:30 a 60.2 60.2 60.5 59.9 0.0 1.0 --- 0.00 30.180
10/10/2002 10:00 a 60.5 60.5 60.6 60.4 0.0 2.0 E 0.00 30.183
10/10/2002 10:30 a 61.0 61.0 61.4 60.6 0.0 2.0 E 0.00 30.185
10/10/2002 11:00 a 61.5 61.5 62.1 61.2 0.0 2.0 E 0.00 30.182
10/10/2002 11:30 a 62.2 62.2 62.5 61.9 0.0 3.0 E 0.00 30.181
10/10/2002 12:00 p 62.1 62.1 62.3 61.9 0.0 3.0 E 0.00 30.175
10/10/2002 12:30 p 62.6 62.6 62.9 62.2 0.0 2.0 E 0.00 30.169
10/10/2002 1:00 p 63.1 63.1 63.2 62.9 0.0 1.0 E 0.00 30.168
10/10/2002 1:30 p 62.8 62.8 62.9 62.7 0.0 3.0 E 0.00 30.165
10/10/2002 2:00 p 63.0 63.0 63.5 62.6 0.0 2.0 E 0.00 30.155
10/10/2002 2:30 p 63.1 63.1 63.4 62.7 0.0 3.0 E 0.00 30.148
10/10/2002 3:00 p 62.5 62.5 62.7 62.3 0.0 2.0 E 0.00 30.158
10/10/2002 3:30 p 62.4 62.4 62.5 62.2 0.0 2.0 ENE 0.00 30.149
10/10/2002 4:00 p 62.1 62.1 62.3 61.9 0.0 2.0 ENE 0.00 30.152
10/10/2002 4:30 p 61.5 61.5 61.9 61.3 0.0 3.0 ENE 0.00 30.153
10/10/2002 5:00 p 61.4 61.4 61.5 61.3 0.0 1.0 ENE 0.00 30.150
10/10/2002 5:30 p 60.9 60.9 61.3 60.4 0.0 2.0 ENE 0.00 30.145
10/10/2002 6:00 p 60.0 60.0 60.4 59.7 0.0 2.0 ENE 0.00 30.151
10/10/2002 6:30 p 59.4 59.4 60.1 58.9 0.0 2.0 ENE 0.01 30.160
10/10/2002 7:00 p 59.6 59.6 61.5 57.9 0.0 3.0 ENE 0.00 30.171
10/10/2002 7:30 p 57.3 57.3 57.8 56.9 0.0 2.0 SSE 0.00 30.172
10/10/2002 8:00 p 56.8 56.8 57.0 56.6 0.0 1.0 --- 0.00 30.171
10/10/2002 8:30 p 56.7 56.7 56.9 56.6 0.0 1.0 --- 0.00 30.181
10/10/2002 9:00 p 56.7 56.7 56.9 56.5 0.0 1.0 SSE 0.00 30.178
10/10/2002 9:30 p 56.3 56.3 56.5 56.0 0.0 2.0 SSE 0.00 30.180
10/10/2002 10:00 p 56.0 56.0 56.1 55.9 0.0 1.0 SSE 0.00 30.179
10/10/2002 10:30 p 56.0 56.0 56.2 55.8 0.0 1.0 SSE 0.00 30.177
10/10/2002 11:00 p 55.9 55.9 56.0 55.8 0.0 1.0 SSE 0.00 30.175
10/10/2002 11:30 p 55.9 55.9 56.1 55.8 0.0 2.0 SSE 0.00 30.167
10/11/2002 12:00 a 56.0 56.0 56.1 55.8 0.0 0.0 --- 0.00 30.162
10/11/2002 12:30 a 56.0 56.0 56.1 55.9 0.0 2.0 SSE 0.00 30.153
10/11/2002 1:00 a 56.1 56.1 56.5 56.0 0.0 1.0 SSE 0.00 30.157
10/11/2002 1:30 a 56.1 56.1 56.3 56.0 0.0 2.0 SSE 0.00 30.154
10/11/2002 2:00 a 56.3 56.3 56.6 56.1 0.0 1.0 --- 0.00 30.150
10/11/2002 2:30 a 56.6 56.6 56.7 56.4 0.0 0.0 --- 0.00 30.142
10/11/2002 3:00 a 56.0 56.0 56.5 55.7 0.0 1.0 --- 0.00 30.136
10/11/2002 3:30 a 55.5 55.5 55.7 55.3 0.0 2.0 SSE 0.00 30.129
10/11/2002 4:00 a 55.2 55.2 55.4 55.0 0.0 3.0 SSE 0.01 30.126
10/11/2002 4:30 a 55.0 55.0 55.1 54.8 0.0 1.0 SSE 0.00 30.119
10/11/2002 5:00 a 54.9 54.9 55.0 54.7 0.0 2.0 SE 0.00 30.119
10/11/2002 5:30 a 55.0 55.0 55.2 54.9 0.0 5.0 ESE 0.00 30.114
10/11/2002 6:00 a 55.1 55.1 55.2 54.9 0.0 6.0 SE 0.00 30.108
10/11/2002 6:30 a 55.0 55.0 55.1 54.8 0.0 2.0 SE 0.00 30.114
10/11/2002 7:00 a 54.9 54.9 55.0 54.8 0.0 3.0 SE 0.00 30.115
10/11/2002 7:30 a 54.5 54.5 54.8 54.2 0.0 4.0 SW 0.00 30.120
10/11/2002 8:00 a 54.2 54.2 54.5 54.0 0.0 0.0 --- 0.00 30.125
10/11/2002 8:30 a 54.5 54.5 54.8 54.2 0.0 2.0 SE 0.00 30.120
10/11/2002 9:00 a 55.1 55.1 55.5 54.8 0.0 2.0 ESE 0.01 30.124
10/11/2002 9:30 a 55.7 55.7 56.0 55.5 0.0 4.0 SE 0.00 30.117
10/11/2002 10:00 a 56.3 56.3 56.5 56.0 0.0 2.0 SE 0.00 30.110
10/11/2002 10:30 a 56.5 56.5 56.7 56.4 0.0 3.0 ESE 0.00 30.112
10/11/2002 11:00 a 56.7 56.7 56.9 56.5 0.0 4.0 SW 0.00 30.113
10/11/2002 11:30 a 57.0 57.0 57.2 56.8 0.0 3.0 E 0.01 30.114
10/11/2002 12:00 p 57.5 57.5 57.9 57.2 0.0 2.0 ESE 0.00 30.104
10/11/2002 12:30 p 58.1 58.1 58.5 57.8 0.0 3.0 S 0.00 30.095
10/11/2002 1:00 p 58.7 58.7 58.9 58.5 0.0 1.0 SE 0.00 30.081
10/11/2002 1:30 p 58.8 58.8 59.0 58.6 0.0 1.0 SE 0.00 30.063
10/11/2002 2:00 p 59.1 59.1 59.2 58.9 0.0 2.0 SE 0.00 30.051
10/11/2002 2:30 p 58.8 58.8 59.1 58.7 0.0 3.0 SE 0.00 30.043
10/11/2002 3:00 p 58.8 58.8 58.9 58.6 0.0 2.0 SW 0.00 30.033
10/11/2002 3:30 p 58.8 58.8 59.0 58.7 0.0 2.0 S 0.00 30.028
10/11/2002 4:00 p 59.0 59.0 59.1 58.8 0.0 5.0 ESE 0.01 30.027
10/11/2002 4:30 p 59.3 59.3 59.4 59.1 0.0 2.0 E 0.00 30.020
10/11/2002 5:00 p 59.5 59.5 59.7 59.4 0.0 1.0 E 0.00 30.014
10/11/2002 5:30 p 59.9 59.9 60.1 59.6 0.0 1.0 E 0.00 30.020
10/11/2002 6:00 p 60.2 60.2 60.3 60.1 0.0 4.0 SW 0.01 30.021
10/11/2002 6:30 p 62.3 62.3 64.6 60.2 0.0 1.0 --- 0.00 30.023
10/11/2002 7:00 p 61.6 61.6 63.3 60.6 0.0 2.0 SE 0.00 30.017
10/11/2002 7:30 p 60.4 60.4 60.7 60.4 0.0 3.0 SE 0.00 30.014
10/11/2002 8:00 p 60.5 60.5 62.5 60.3 0.0 3.0 SW 0.00 30.012
10/11/2002 8:30 p 62.0 62.0 63.7 60.9 0.0 1.0 SSE 0.00 30.015
10/11/2002 9:00 p 61.9 61.9 64.1 60.8 0.0 2.0 S 0.00 30.015
10/11/2002 9:30 p 62.7 62.7 64.3 61.3 0.0 1.0 S 0.00 30.015
10/11/2002 10:00 p 60.9 60.9 61.7 60.7 0.0 1.0 S 0.00 30.008
10/11/2002 10:30 p 60.8 60.8 60.9 60.8 0.0 1.0 --- 0.01 30.001
10/11/2002 11:00 p 61.0 61.0 61.1 60.9 0.0 1.0 --- 0.00 30.002
10/11/2002 11:30 p 61.2 61.2 61.2 61.1 0.0 1.0 --- 0.02 29.994
10/12/2002 12:00 a 60.8 60.8 61.1 60.6 0.0 1.0 SSE 0.02 29.985
10/12/2002 12:30 a 60.4 60.4 60.6 60.4 0.0 1.0 SSE 0.01 29.980
10/12/2002 1:00 a 60.4 60.4 60.6 60.4 0.0 1.0 SSE 0.00 29.966
10/12/2002 1:30 a 60.6 60.6 60.7 60.5 0.0 1.0 --- 0.00 29.967
10/12/2002 2:00 a 60.7 60.7 60.8 60.6 0.0 1.0 SSE 0.00 29.966
10/12/2002 2:30 a 60.8 60.8 60.9 60.7 0.0 0.0 --- 0.00 29.958
10/12/2002 3:00 a 60.8 60.8 60.9 60.8 0.0 0.0 --- 0.00 29.956
10/12/2002 3:30 a 60.8 60.8 60.9 60.8 0.0 0.0 --- 0.00 29.959
10/12/2002 4:00 a 60.8 60.8 60.9 60.8 0.0 0.0 --- 0.00 29.953
10/12/2002 4:30 a 60.4 60.4 60.9 60.1 0.0 1.0 --- 0.00 29.951
10/12/2002 5:00 a 60.0 60.0 60.1 59.9 0.0 1.0 --- 0.00 29.958
10/12/2002 5:30 a 59.9 59.9 59.9 59.8 0.0 1.0 SSE 0.00 29.962
10/12/2002 6:00 a 59.8 59.8 59.9 59.7 0.0 2.0 SSE 0.00 29.965
10/12/2002 6:30 a 59.8 59.8 59.9 59.7 0.0 2.0 E 0.00 29.961
10/12/2002 7:00 a 60.0 60.0 60.1 59.8 0.0 3.0 WSW 0.00 29.970
10/12/2002 7:30 a 60.2 60.2 60.3 60.1 0.0 1.0 WSW 0.00 29.966
10/12/2002 8:00 a 60.5 60.5 60.7 60.2 0.0 2.0 --- 0.00 29.969
10/12/2002 8:30 a 60.7 60.7 60.8 60.6 0.0 4.0 SW 0.00 29.985
10/12/2002 9:00 a 60.3 60.3 60.8 59.9 0.0 3.0 SW 0.00 29.991
10/12/2002 9:30 a 60.1 60.1 60.3 59.9 0.0 3.0 SW 0.00 29.990
10/12/2002 10:00 a 60.0 60.0 60.2 59.8 0.0 4.0 E 0.00 29.993
10/12/2002 10:30 a 60.3 60.3 60.6 60.0 0.0 2.0 SSW 0.00 30.001
10/12/2002 11:00 a 61.0 61.0 61.3 60.6 0.0 3.0 SSW 0.00 29.999
10/12/2002 11:30 a 61.5 61.5 62.0 61.0 0.0 2.0 SSW 0.00 29.994
10/12/2002 12:00 p 62.3 62.3 63.0 61.6 0.0 2.0 E 0.00 29.985
10/12/2002 12:30 p 62.2 62.2 62.7 61.6 0.0 4.0 SW 0.00 29.988
10/12/2002 1:00 p 61.9 61.9 62.2 61.6 0.0 5.0 ESE 0.00 29.980
10/12/2002 1:30 p 61.8 61.8 62.2 61.3 0.0 4.0 SSE 0.00 29.979
10/12/2002 2:00 p 61.2 61.2 61.5 61.0 0.0 3.0 ESE 0.00 29.982
10/12/2002 2:30 p 61.2 61.2 61.5 60.9 0.0 2.0 S 0.00 29.976
10/12/2002 3:00 p 61.0 61.0 61.2 60.8 0.0 1.0 SSE 0.00 29.979
10/12/2002 3:30 p 60.6 60.6 60.9 60.3 0.0 3.0 SSW 0.00 29.981
10/12/2002 4:00 p 60.5 60.5 60.7 60.2 0.0 2.0 SE 0.00 29.987
10/12/2002 4:30 p 60.3 60.3 60.6 60.1 0.0 2.0 SSE 0.00 29.988
10/12/2002 5:00 p 60.1 60.1 60.4 59.7 0.0 1.0 SE 0.00 29.997
10/12/2002 5:30 p 59.6 59.6 59.8 59.4 0.0 2.0 SE 0.00 29.999
10/12/2002 6:00 p 59.2 59.2 59.5 58.9 0.0 3.0 SSW 0.00 30.003
10/12/2002 6:30 p 58.7 58.7 59.1 58.5 0.0 3.0 SSW 0.00 30.003
10/12/2002 7:00 p 58.3 58.3 58.5 57.9 0.0 2.0 SSW 0.00 30.009
10/12/2002 7:30 p 58.0 58.0 58.1 57.7 0.0 2.0 SSW 0.00 30.019
10/12/2002 8:00 p 57.7 57.7 57.9 57.5 0.0 1.0 S 0.00 30.021
10/12/2002 8:30 p 57.6 57.6 57.7 57.4 0.0 2.0 S 0.00 30.026
10/12/2002 9:00 p 57.4 57.4 57.6 57.2 0.0 2.0 SE 0.00 30.024
10/12/2002 9:30 p 57.2 57.2 57.4 57.1 0.0 2.0 --- 0.00 30.021
10/12/2002 10:00 p 57.1 57.1 57.2 56.9 0.0 1.0 SSE 0.00 30.017
10/12/2002 10:30 p 57.0 57.0 57.1 56.9 0.0 1.0 --- 0.00 30.011
10/12/2002 11:00 p 56.9 56.9 57.1 56.8 0.0 1.0 SSE 0.00 30.006
10/12/2002 11:30 p 56.8 56.8 56.9 56.8 0.0 1.0 SSE 0.00 30.006
10/13/2002 12:00 a 56.8 56.8 57.0 56.7 0.0 3.0 SSW 0.00 30.001
10/13/2002 12:30 a 56.8 56.8 57.0 56.6 0.0 1.0 --- 0.00 29.996
10/13/2002 1:00 a 56.7 56.7 56.8 56.5 0.0 0.0 --- 0.00 29.994
10/13/2002 1:30 a 56.6 56.6 56.7 56.5 0.0 1.0 SSW 0.00 29.995
10/13/2002 2:00 a 56.6 56.6 56.7 56.4 0.0 1.0 SSW 0.00 29.987
10/13/2002 2:30 a 56.4 56.4 56.6 56.3 0.0 0.0 --- 0.00 29.983
10/13/2002 3:00 a 56.4 56.4 56.5 56.2 0.0 1.0 --- 0.00 29.979
10/13/2002 3:30 a 56.3 56.3 56.4 56.2 0.0 0.0 --- 0.00 29.978
10/13/2002 4:00 a 56.3 56.3 56.4 56.2 0.0 1.0 SSW 0.00 29.979
10/13/2002 4:30 a 56.3 56.3 56.4 56.1 0.0 1.0 SSW 0.00 29.981
10/13/2002 5:00 a 56.2 56.2 56.4 56.1 0.0 2.0 SSW 0.00 29.983
10/13/2002 5:30 a 56.2 56.2 56.3 56.1 0.0 0.0 --- 0.00 29.988
10/13/2002 6:00 a 56.2 56.2 56.3 56.1 0.0 0.0 --- 0.00 29.983
10/13/2002 6:30 a 56.2 56.2 56.3 56.0 0.0 1.0 SSW 0.00 29.984
10/13/2002 7:00 a 58.1 58.1 59.6 56.0 0.0 1.0 --- 0.00 29.980
10/13/2002 7:30 a 56.5 56.5 56.9 56.4 0.0 2.0 SSW 0.00 29.986
10/13/2002 8:00 a 56.7 56.7 57.0 56.5 0.0 1.0 --- 0.00 29.983
10/13/2002 8:30 a 57.1 57.1 57.3 56.9 0.0 0.0 --- 0.00 29.985
10/13/2002 9:00 a 57.5 57.5 58.0 57.2 0.0 1.0 SSW 0.00 29.984
10/13/2002 9:30 a 58.7 58.7 59.1 57.9 0.0 1.0 --- 0.00 29.978
10/13/2002 10:00 a 58.9 58.9 59.1 58.6 0.0 2.0 SSW 0.00 29.984
10/13/2002 10:30 a 59.2 59.2 59.8 58.9 0.0 1.0 --- 0.00 29.979
10/13/2002 11:00 a 60.1 60.1 61.1 59.4 0.0 0.0 --- 0.00 29.971
10/13/2002 11:30 a 60.5 60.5 60.9 59.9 0.0 2.0 SSW 0.00 29.960
10/13/2002 12:00 p 61.6 61.6 62.2 60.7 0.0 1.0 SSW 0.00 29.951
10/13/2002 12:30 p 61.4 61.4 62.1 60.8 0.0 1.0 SSW 0.00 29.940
10/13/2002 1:00 p 61.5 61.5 61.9 61.2 0.0 1.0 SSW 0.00 29.940
10/13/2002 1:30 p 61.5 61.5 61.8 61.1 0.0 0.0 --- 0.00 29.932
10/13/2002 2:00 p 61.3 61.3 61.7 61.0 0.0 0.0 --- 0.00 29.929
10/13/2002 2:30 p 61.5 61.5 61.9 61.0 0.0 0.0 --- 0.00 29.919
10/13/2002 3:00 p 61.5 61.5 61.8 61.1 0.0 0.0 --- 0.00 29.920
10/13/2002 3:30 p 61.7 61.7 61.8 61.5 0.0 0.0 --- 0.00 29.921
10/13/2002 4:00 p 62.0 62.0 62.7 61.6 0.0 0.0 --- 0.00 29.918
10/13/2002 4:30 p 61.8 61.8 62.8 61.3 0.0 0.0 --- 0.00 29.922
10/13/2002 5:00 p 61.3 61.3 61.6 61.1 0.0 0.0 --- 0.00 29.915
10/13/2002 5:30 p 61.5 61.5 61.7 61.4 0.0 0.0 --- 0.00 29.915
10/13/2002 6:00 p 61.1 61.1 61.5 60.6 0.0 0.0 --- 0.00 29.918
10/13/2002 6:30 p 60.4 60.4 60.7 60.2 0.0 0.0 --- 0.00 29.918
10/13/2002 7:00 p 60.2 60.2 60.3 60.1 0.0 0.0 --- 0.00 29.926
10/13/2002 7:30 p 60.3 60.3 60.4 60.2 0.0 0.0 --- 0.00 29.928
10/13/2002 8:00 p 60.3 60.3 60.4 60.2 0.0 0.0 --- 0.00 29.928
10/13/2002 8:30 p 60.3 60.3 60.3 60.2 0.0 0.0 --- 0.00 29.930
10/13/2002 9:00 p 60.2 60.2 60.3 60.1 0.0 0.0 --- 0.00 29.938
10/13/2002 9:30 p 60.1 60.1 60.3 60.0 0.0 0.0 --- 0.00 29.946
10/13/2002 10:00 p 59.3 59.3 60.7 57.1 1.0 5.0 SW 0.00 29.967
10/13/2002 10:30 p 57.7 57.7 58.8 57.0 1.0 6.0 SW 0.00 29.975
10/13/2002 11:00 p 57.7 57.7 58.4 56.6 1.0 3.0 SW 0.00 29.975
10/13/2002 11:30 p 56.5 56.5 56.7 56.3 2.0 6.0 SW 0.00 29.989
10/14/2002 12:00 a 56.1 56.1 56.4 55.7 1.0 6.0 SW 0.00 30.004
10/14/2002 12:30 a 55.3 55.3 55.7 54.7 0.0 3.0 SE 0.00 30.007
10/14/2002 1:00 a 54.6 54.6 54.8 54.2 1.0 4.0 SW 0.00 30.012
10/14/2002 1:30 a 54.0 54.0 54.6 53.4 1.0 4.0 SW 0.00 30.016
10/14/2002 2:00 a 53.5 53.5 53.9 53.2 1.0 4.0 SW 0.00 30.023
10/14/2002 2:30 a 52.6 52.6 53.3 52.2 1.0 4.0 SW 0.00 30.031
10/14/2002 3:00 a 52.0 52.0 52.5 51.6 1.0 5.0 SW 0.00 30.034
10/14/2002 3:30 a 51.4 51.4 51.7 50.9 1.0 5.0 SW 0.00 30.049
10/14/2002 4:00 a 50.5 50.5 50.9 50.0 1.0 5.0 SW 0.00 30.058
10/14/2002 4:30 a 49.7 49.7 50.2 49.0 1.0 6.0 SW 0.00 30.062
10/14/2002 5:00 a 48.4 48.4 49.3 47.7 0.0 2.0 SW 0.00 30.072
10/14/2002 5:30 a 48.0 48.0 48.3 47.7 1.0 6.0 SW 0.00 30.087
10/14/2002 6:00 a 47.7 47.7 48.3 47.1 1.0 4.0 SW 0.00 30.096
10/14/2002 6:30 a 47.0 47.0 47.2 46.5 1.0 5.0 SW 0.00 30.096
10/14/2002 7:00 a 46.8 46.8 47.1 46.1 1.0 5.0 SW 0.00 30.110
10/14/2002 7:30 a 46.1 46.1 46.4 45.6 0.0 3.0 N 0.00 30.128
10/14/2002 8:00 a 46.5 46.5 47.0 46.0 1.0 6.0 SW 0.00 30.143
10/14/2002 8:30 a 47.5 47.5 47.9 47.1 1.0 6.0 SW 0.00 30.152
10/14/2002 9:00 a 48.4 48.4 48.7 47.9 1.0 7.0 SW 0.00 30.166
10/14/2002 9:30 a 48.9 48.9 49.5 48.5 2.0 9.0 SW 0.00 30.176
10/14/2002 10:00 a 49.8 49.8 50.6 49.1 1.0 8.0 SW 0.00 30.170
10/14/2002 10:30 a 50.7 50.7 51.4 50.3 2.0 10.0 SW 0.00 30.169
10/14/2002 11:00 a 51.4 51.4 52.3 50.8 2.0 8.0 SW 0.00 30.170
10/14/2002 11:30 a 52.8 52.8 53.3 52.1 2.0 8.0 SW 0.00 30.157
10/14/2002 12:00 p 54.0 54.0 54.7 53.3 2.0 9.0 SW 0.00 30.152
10/14/2002 12:30 p 55.4 55.4 56.5 54.3 1.0 6.0 SW 0.00 30.141
10/14/2002 1:00 p 57.0 57.0 58.2 56.3 1.0 6.0 SW 0.00 30.127
10/14/2002 1:30 p 57.7 57.7 58.1 57.3 1.0 6.0 SW 0.00 30.115
10/14/2002 2:00 p 58.1 58.1 58.9 57.3 2.0 7.0 SW 0.00 30.102
10/14/2002 2:30 p 58.4 58.4 59.4 57.7 2.0 7.0 SW 0.00 30.094
10/14/2002 3:00 p 58.4 58.4 59.3 57.8 1.0 5.0 SW 0.00 30.094
10/14/2002 3:30 p 57.8 57.8 58.3 57.2 1.0 6.0 SW 0.00 30.091
10/14/2002 4:00 p 56.5 56.5 57.5 56.1 1.0 7.0 SW 0.00 30.098
10/14/2002 4:30 p 55.9 55.9 56.2 55.6 1.0 5.0 SW 0.00 30.101
10/14/2002 5:00 p 55.2 55.2 55.6 54.7 1.0 5.0 SW 0.00 30.099
10/14/2002 5:30 p 54.4 54.4 54.8 53.9 1.0 5.0 SW 0.00 30.100
10/14/2002 6:00 p 53.0 53.0 53.9 51.0 0.0 2.0 SW 0.00 30.104
10/14/2002 6:30 p 50.1 50.1 51.2 49.2 0.0 0.0 --- 0.00 30.107
10/14/2002 7:00 p 47.8 47.8 49.2 46.6 0.0 0.0 --- 0.00 30.117
10/14/2002 7:30 p 45.5 45.5 46.7 44.5 0.0 0.0 --- 0.00 30.118
10/14/2002 8:00 p 44.4 44.4 45.1 43.9 0.0 0.0 --- 0.00 30.122
10/14/2002 8:30 p 43.2 43.2 44.0 42.7 0.0 0.0 --- 0.00 30.130
10/14/2002 9:00 p 42.6 42.6 42.8 42.2 0.0 0.0 --- 0.00 30.134
10/14/2002 9:30 p 42.4 42.4 42.9 42.0 0.0 0.0 --- 0.00 30.137
10/14/2002 10:00 p 42.5 42.5 42.9 42.0 0.0 0.0 --- 0.00 30.142
10/14/2002 10:30 p 42.5 42.5 42.9 42.2 0.0 0.0 --- 0.00 30.133
10/14/2002 11:00 p 42.9 42.9 43.5 42.3 0.0 0.0 --- 0.00 30.127
10/14/2002 11:30 p 42.5 42.5 43.6 41.6 0.0 0.0 --- 0.00 30.131
10/15/2002 12:00 a 41.9 41.9 42.2 41.5 0.0 0.0 --- 0.00 30.131
10/15/2002 12:30 a 41.6 41.6 42.2 41.0 0.0 0.0 --- 0.00 30.125
10/15/2002 1:00 a 40.7 40.7 41.2 40.1 0.0 0.0 --- 0.00 30.125
10/15/2002 1:30 a 40.0 40.0 40.4 39.6 0.0 0.0 --- 0.00 30.120
10/15/2002 2:00 a 39.2 39.2 39.9 38.7 0.0 0.0 --- 0.00 30.130
10/15/2002 2:30 a 38.6 38.6 38.9 38.3 0.0 0.0 --- 0.00 30.128
10/15/2002 3:00 a 39.0 39.0 39.4 38.6 0.0 0.0 --- 0.00 30.117
10/15/2002 3:30 a 39.0 39.0 39.3 38.8 0.0 0.0 --- 0.00 30.104
10/15/2002 4:00 a 39.1 39.1 39.8 38.5 0.0 0.0 --- 0.00 30.110
10/15/2002 4:30 a 39.2 39.2 39.9 38.5 0.0 0.0 --- 0.00 30.106
10/15/2002 5:00 a 38.6 38.6 39.0 38.3 0.0 0.0 --- 0.00 30.100
10/15/2002 5:30 a 38.1 38.1 38.6 37.6 0.0 0.0 --- 0.00 30.100
10/15/2002 6:00 a 37.7 37.7 38.4 37.3 0.0 0.0 --- 0.00 30.102
10/15/2002 6:30 a 37.6 37.6 37.9 37.4 0.0 0.0 --- 0.00 30.107
10/15/2002 7:00 a 37.6 37.6 37.9 37.4 0.0 0.0 --- 0.00 30.106
10/15/2002 7:30 a 38.4 38.4 39.2 37.6 0.0 0.0 --- 0.00 30.120
10/15/2002 8:00 a 40.2 40.2 41.1 39.2 0.0 0.0 --- 0.00 30.118
10/15/2002 8:30 a 42.2 42.2 43.8 41.2 0.0 0.0 --- 0.00 30.124
10/15/2002 9:00 a 45.2 45.2 46.2 43.8 0.0 0.0 --- 0.00 30.114
10/15/2002 9:30 a 47.3 47.3 48.4 46.2 0.0 4.0 SSE 0.00 30.095
10/15/2002 10:00 a 49.5 49.5 50.9 48.2 0.0 3.0 SSW 0.00 30.085
10/15/2002 10:30 a 51.6 51.6 52.9 50.8 0.0 3.0 SSW 0.00 30.080
10/15/2002 11:00 a 53.1 53.1 54.5 52.1 0.0 3.0 SSW 0.00 30.073
10/15/2002 11:30 a 53.5 53.5 54.6 52.7 0.0 3.0 ESE 0.00 30.064
10/15/2002 12:00 p 55.5 55.5 56.5 54.0 0.0 3.0 E 0.00 30.064
10/15/2002 12:30 p 56.1 56.1 56.9 55.2 1.0 5.0 E 0.00 30.042
10/15/2002 1:00 p 57.1 57.1 57.9 56.5 1.0 4.0 E 0.00 30.028
10/15/2002 1:30 p 57.3 57.3 58.3 56.7 1.0 5.0 E 0.00 30.014
10/15/2002 2:00 p 57.7 57.7 59.3 56.7 1.0 5.0 E 0.00 30.009
10/15/2002 2:30 p 57.0 57.0 57.8 56.4 1.0 6.0 E 0.00 29.994
10/15/2002 3:00 p 57.1 57.1 57.7 56.9 1.0 5.0 E 0.00 29.989
10/15/2002 3:30 p 57.2 57.2 57.8 56.7 1.0 3.0 E 0.00 29.982
10/15/2002 4:00 p 56.4 56.4 56.8 55.9 1.0 4.0 E 0.00 29.978
10/15/2002 4:30 p 55.7 55.7 56.0 55.4 0.0 3.0 E 0.00 29.969
10/15/2002 5:00 p 55.1 55.1 55.6 54.8 1.0 4.0 E 0.00 29.960
10/15/2002 5:30 p 54.7 54.7 55.0 54.3 0.0 2.0 E 0.00 29.953
10/15/2002 6:00 p 54.0 54.0 54.3 53.7 0.0 0.0 --- 0.00 29.946
10/15/2002 6:30 p 53.8 53.8 54.0 53.7 0.0 0.0 --- 0.00 29.942
10/15/2002 7:00 p 53.3 53.3 53.8 53.0 0.0 1.0 --- 0.00 29.940
10/15/2002 7:30 p 53.2 53.2 53.5 53.0 0.0 0.0 --- 0.00 29.931
10/15/2002 8:00 p 53.4 53.4 53.5 53.2 0.0 0.0 --- 0.00 29.929
10/15/2002 8:30 p 53.1 53.1 53.5 52.8 0.0 0.0 --- 0.00 29.918
10/15/2002 9:00 p 52.8 52.8 53.1 52.4 0.0 0.0 --- 0.00 29.910
10/15/2002 9:30 p 53.3 53.3 53.4 53.1 0.0 0.0 --- 0.00 29.888
10/15/2002 10:00 p 53.5 53.5 53.7 53.3 0.0 0.0 --- 0.00 29.879
10/15/2002 10:30 p 53.6 53.6 53.8 53.4 0.0 0.0 --- 0.00 29.865
10/15/2002 11:00 p 53.4 53.4 53.6 53.3 0.0 0.0 --- 0.00 29.858
10/15/2002 11:30 p 53.3 53.3 53.4 53.1 0.0 0.0 --- 0.00 29.845
10/16/2002 12:00 a 54.0 54.0 54.7 53.4 0.0 3.0 E 0.00 29.839
10/16/2002 12:30 a 56.0 56.0 58.3 54.5 0.0 2.0 ENE 0.00 29.816
10/16/2002 1:00 a 55.8 55.8 58.0 54.9 0.0 1.0 ENE 0.00 29.798
10/16/2002 1:30 a 55.1 55.1 55.2 54.8 0.0 2.0 ENE 0.00 29.790
10/16/2002 2:00 a 54.3 54.3 54.8 53.9 0.0 1.0 ENE 0.01 29.778
10/16/2002 2:30 a 53.6 53.6 53.9 53.4 0.0 0.0 --- 0.00 29.758
10/16/2002 3:00 a 53.1 53.1 53.5 52.8 0.0 0.0 --- 0.00 29.742
10/16/2002 3:30 a 52.8 52.8 52.9 52.7 0.0 2.0 --- 0.00 29.724
10/16/2002 4:00 a 52.8 52.8 52.9 52.6 0.0 1.0 --- 0.02 29.706
10/16/2002 4:30 a 52.8 52.8 52.9 52.6 0.0 0.0 --- 0.00 29.689
10/16/2002 5:00 a 53.1 53.1 53.2 52.9 0.0 1.0 --- 0.02 29.680
10/16/2002 5:30 a 52.9 52.9 53.1 52.6 0.0 2.0 ENE 0.04 29.662
10/16/2002 6:00 a 52.4 52.4 52.7 52.2 0.0 3.0 ENE 0.03 29.634
10/16/2002 6:30 a 52.1 52.1 52.3 51.8 0.0 3.0 E 0.01 29.621
10/16/2002 7:00 a 51.6 51.6 51.8 51.4 0.0 3.0 NW 0.01 29.608
10/16/2002 7:30 a 51.3 51.3 51.5 51.1 0.0 4.0 NNW 0.01 29.591
10/16/2002 8:00 a 51.0 51.0 51.2 50.8 1.0 3.0 WNW 0.00 29.565
10/16/2002 8:30 a 50.6 50.6 50.9 50.5 1.0 5.0 NW 0.01 29.556
10/16/2002 9:00 a 50.5 50.5 50.7 50.3 0.0 7.0 NW 0.01 29.537
10/16/2002 9:30 a 50.1 50.1 50.5 49.7 1.0 4.0 SSE 0.01 29.493
10/16/2002 10:00 a 49.9 49.9 50.0 49.8 1.0 6.0 NW 0.04 29.459
10/16/2002 10:30 a 49.9 49.9 50.2 49.7 0.0 4.0 WSW 0.02 29.429
10/16/2002 11:00 a 50.4 50.4 50.8 50.1 0.0 3.0 WNW 0.00 29.403
10/16/2002 11:30 a 50.8 50.8 51.3 50.5 0.0 3.0 NW 0.01 29.372
10/16/2002 12:00 p 51.2 51.2 51.4 51.0 0.0 6.0 WSW 0.01 29.354
10/16/2002 12:30 p 51.6 51.6 52.0 51.2 0.0 4.0 SSE 0.02 29.321
10/16/2002 1:00 p 51.9 51.9 52.1 51.6 0.0 2.0 NW 0.02 29.289
10/16/2002 1:30 p 52.1 52.1 52.3 51.8 0.0 5.0 SSE 0.02 29.264
10/16/2002 2:00 p 52.4 52.4 52.6 52.2 1.0 5.0 SSE 0.02 29.238
10/16/2002 2:30 p 52.3 52.3 52.5 52.1 1.0 5.0 SSE 0.03 29.202
10/16/2002 3:00 p 52.0 52.0 52.3 51.8 1.0 6.0 SSE 0.02 29.181
10/16/2002 3:30 p 51.9 51.9 52.1 51.7 1.0 5.0 SSE 0.01 29.162
10/16/2002 4:00 p 51.5 51.5 51.9 50.9 1.0 7.0 SSE 0.01 29.161
10/16/2002 4:30 p 50.5 50.5 51.0 49.9 2.0 6.0 SSE 0.06 29.184
10/16/2002 5:00 p 49.6 49.6 50.1 49.4 1.0 7.0 SSE 0.02 29.195
10/16/2002 5:30 p 49.7 49.7 50.0 49.5 1.0 6.0 SSE 0.00 29.243
10/16/2002 6:00 p 49.0 49.0 49.7 48.8 1.0 7.0 SSE 0.01 29.251
10/16/2002 6:30 p 49.0 49.0 49.3 48.8 2.0 8.0 SSE 0.00 29.261
10/16/2002 7:00 p 49.4 49.4 50.0 49.1 1.0 7.0 SSE 0.00 29.280
10/16/2002 7:30 p 50.8 50.8 53.9 49.9 1.0 6.0 SSE 0.00 29.350
10/16/2002 8:00 p 50.2 50.2 51.9 49.3 0.0 2.0 SSW 0.00 29.361
10/16/2002 8:30 p 50.6 50.6 52.3 49.3 0.0 2.0 SSW 0.00 29.385
10/16/2002 9:00 p 49.9 49.9 50.2 49.4 0.0 2.0 SSW 0.00 29.421
10/16/2002 9:30 p 50.4 50.4 50.7 49.9 0.0 3.0 SSW 0.00 29.428
10/16/2002 10:00 p 50.2 50.2 50.6 49.7 0.0 3.0 SSW 0.00 29.450
10/16/2002 10:30 p 49.4 49.4 49.9 48.5 0.0 3.0 SSE 0.00 29.468
10/16/2002 11:00 p 48.3 48.3 48.8 47.9 0.0 1.0 SE 0.00 29.486
10/16/2002 11:30 p 47.9 47.9 48.1 47.7 0.0 1.0 ESE 0.00 29.505
10/17/2002 12:00 a 47.7 47.7 48.0 47.5 0.0 1.0 ESE 0.00 29.513
10/17/2002 12:30 a 47.1 47.1 47.7 46.5 0.0 1.0 --- 0.00 29.513
10/17/2002 1:00 a 46.0 46.0 46.8 45.5 0.0 0.0 --- 0.00 29.525
10/17/2002 1:30 a 45.3 45.3 45.8 44.7 0.0 0.0 --- 0.00 29.532
10/17/2002 2:00 a 44.4 44.4 44.8 44.2 0.0 0.0 --- 0.00 29.561
10/17/2002 2:30 a 44.0 44.0 44.4 43.7 0.0 0.0 --- 0.00 29.578
10/17/2002 3:00 a 43.7 43.7 44.1 43.3 0.0 0.0 --- 0.00 29.589
10/17/2002 3:30 a 43.4 43.4 43.7 43.0 0.0 0.0 --- 0.00 29.599
10/17/2002 4:00 a 42.9 42.9 43.2 42.6 0.0 0.0 --- 0.00 29.611
10/17/2002 4:30 a 43.0 43.0 43.6 42.6 0.0 0.0 --- 0.00 29.619
10/17/2002 5:00 a 43.9 43.9 44.4 43.5 0.0 1.0 SSW 0.00 29.635
10/17/2002 5:30 a 43.3 43.3 44.1 42.7 0.0 0.0 --- 0.00 29.656
10/17/2002 6:00 a 42.7 42.7 43.5 42.4 0.0 0.0 --- 0.00 29.675
10/17/2002 6:30 a 43.8 43.8 44.0 43.5 0.0 0.0 --- 0.00 29.684
10/17/2002 7:00 a 43.3 43.3 43.8 43.0 0.0 0.0 --- 0.00 29.703
10/17/2002 7:30 a 43.3 43.3 43.6 43.0 0.0 0.0 --- 0.00 29.718
10/17/2002 8:00 a 44.0 44.0 44.6 43.5 0.0 0.0 --- 0.00 29.731
10/17/2002 8:30 a 45.7 45.7 46.8 44.6 0.0 1.0 --- 0.00 29.738
10/17/2002 9:00 a 47.9 47.9 49.0 46.8 0.0 0.0 --- 0.00 29.742
10/17/2002 9:30 a 49.9 49.9 50.9 48.8 0.0 0.0 --- 0.00 29.750
10/17/2002 10:00 a 52.0 52.0 53.3 50.9 0.0 1.0 SSW 0.00 29.743
10/17/2002 10:30 a 54.7 54.7 55.9 53.3 0.0 2.0 S 0.00 29.744
10/17/2002 11:00 a 56.2 56.2 57.3 55.4 0.0 1.0 S 0.00 29.750
10/17/2002 11:30 a 58.0 58.0 59.0 57.2 0.0 1.0 S 0.00 29.754
10/17/2002 12:00 p 60.2 60.2 61.5 58.7 0.0 2.0 S 0.00 29.756
10/17/2002 12:30 p 62.0 62.0 64.1 59.8 0.0 3.0 SE 0.00 29.751
10/17/2002 1:00 p 60.3 60.3 63.1 58.8 0.0 2.0 ESE 0.00 29.752
10/17/2002 1:30 p 60.7 60.7 62.2 58.9 0.0 2.0 SE 0.00 29.738
10/17/2002 2:00 p 61.8 61.8 62.4 61.2 0.0 2.0 SE 0.00 29.732
10/17/2002 2:30 p 61.3 61.3 61.9 60.9 0.0 2.0 SE 0.00 29.729
10/17/2002 3:00 p 62.0 62.0 63.8 60.5 0.0 1.0 SE 0.00 29.723
10/17/2002 3:30 p 61.0 61.0 61.9 60.4 0.0 2.0 E 0.00 29.720
10/17/2002 4:00 p 60.1 60.1 60.8 59.5 0.0 2.0 NE 0.00 29.722
10/17/2002 4:30 p 59.7 59.7 60.4 59.1 0.0 1.0 NE 0.00 29.723
10/17/2002 5:00 p 58.8 58.8 59.4 58.0 0.0 0.0 --- 0.00 29.728
10/17/2002 5:30 p 57.0 57.0 57.9 56.3 0.0 0.0 --- 0.00 29.732
10/17/2002 6:00 p 56.0 56.0 56.4 55.8 0.0 0.0 --- 0.00 29.737
10/17/2002 6:30 p 55.4 55.4 55.8 55.1 0.0 0.0 --- 0.00 29.750
10/17/2002 7:00 p 55.1 55.1 55.5 55.0 0.0 0.0 --- 0.00 29.751
10/17/2002 7:30 p 55.5 55.5 55.9 55.1 0.0 1.0 ENE 0.00 29.768
10/17/2002 8:00 p 54.9 54.9 55.8 53.4 0.0 3.0 SE 0.00 29.783
10/17/2002 8:30 p 51.9 51.9 53.4 51.2 0.0 1.0 SE 0.02 29.783
10/17/2002 9:00 p 51.3 51.3 51.6 50.9 0.0 2.0 SE 0.00 29.793
10/17/2002 9:30 p 52.6 52.6 56.2 51.1 0.0 2.0 SSW 0.00 29.804
10/17/2002 10:00 p 50.3 50.3 52.5 49.4 0.0 2.0 SSE 0.00 29.798
10/17/2002 10:30 p 49.3 49.3 49.5 48.9 0.0 0.0 --- 0.01 29.791
10/17/2002 11:00 p 48.7 48.7 48.9 48.5 0.0 0.0 --- 0.00 29.789
10/17/2002 11:30 p 48.0 48.0 48.7 47.4 0.0 0.0 --- 0.00 29.791
10/18/2002 12:00 a 47.5 47.5 47.9 46.8 0.0 0.0 --- 0.00 29.789
10/18/2002 12:30 a 46.5 46.5 47.0 46.0 0.0 0.0 --- 0.00 29.791
10/18/2002 1:00 a 45.9 45.9 46.1 45.6 0.0 0.0 --- 0.00 29.799
10/18/2002 1:30 a 45.7 45.7 46.0 45.5 0.0 0.0 --- 0.00 29.812
10/18/2002 2:00 a 46.2 46.2 46.4 45.9 0.0 0.0 --- 0.00 29.819
10/18/2002 2:30 a 45.8 45.8 46.2 45.3 0.0 0.0 --- 0.00 29.828
10/18/2002 3:00 a 45.1 45.1 45.6 44.7 0.0 1.0 --- 0.00 29.837
10/18/2002 3:30 a 44.9 44.9 45.1 44.7 0.0 1.0 --- 0.00 29.840
10/18/2002 4:00 a 44.0 44.0 44.9 43.4 0.0 0.0 --- 0.00 29.850
10/18/2002 4:30 a 43.2 43.2 43.7 42.7 0.0 0.0 --- 0.00 29.857
10/18/2002 5:00 a 43.4 43.4 44.0 42.9 0.0 1.0 --- 0.00 29.869
10/18/2002 5:30 a 42.7 42.7 43.3 42.3 0.0 0.0 --- 0.00 29.885
10/18/2002 6:00 a 42.2 42.2 42.5 41.8 0.0 0.0 --- 0.00 29.896
10/18/2002 6:30 a 41.3 41.3 42.2 40.8 0.0 0.0 --- 0.00 29.898
10/18/2002 7:00 a 41.0 41.0 41.2 40.7 0.0 0.0 --- 0.00 29.910
10/18/2002 7:30 a 40.8 40.8 41.3 40.3 0.0 0.0 --- 0.00 29.918
10/18/2002 8:00 a 41.0 41.0 41.7 40.3 0.0 0.0 --- 0.00 29.940
10/18/2002 8:30 a 43.0 43.0 44.3 41.7 0.0 0.0 --- 0.00 29.952
10/18/2002 9:00 a 45.6 45.6 46.7 44.1 0.0 4.0 SSE 0.00 29.972
10/18/2002 9:30 a 47.1 47.1 47.7 46.7 0.0 4.0 SSE 0.00 29.977
10/18/2002 10:00 a 48.1 48.1 48.7 47.6 0.0 3.0 SE 0.00 29.985
10/18/2002 10:30 a 48.7 48.7 49.4 48.3 0.0 4.0 SSE 0.00 29.986
10/18/2002 11:00 a 49.9 49.9 51.1 49.0 0.0 2.0 SE 0.00 29.996
10/18/2002 11:30 a 51.5 51.5 52.6 50.3 0.0 3.0 SE 0.00 29.997
10/18/2002 12:00 p 53.7 53.7 55.2 52.3 0.0 4.0 SSE 0.00 29.995
10/18/2002 12:30 p 55.6 55.6 56.4 54.7 0.0 3.0 S 0.00 29.988
10/18/2002 1:00 p 56.7 56.7 57.3 55.8 0.0 4.0 SSE 0.00 29.974
10/18/2002 1:30 p 57.1 57.1 58.8 55.9 0.0 4.0 SSE 0.00 29.969
10/18/2002 2:00 p 58.2 58.2 60.1 55.8 0.0 4.0 SSE 0.00 29.961
10/18/2002 2:30 p 57.5 57.5 59.2 55.4 0.0 3.0 S 0.00 29.964
10/18/2002 3:00 p 58.7 58.7 59.6 57.4 0.0 4.0 SSE 0.00 29.966
10/18/2002 3:30 p 56.4 56.4 57.5 55.1 0.0 3.0 S 0.00 29.972
10/18/2002 4:00 p 56.4 56.4 56.8 55.9 0.0 3.0 SSE 0.00 29.978
10/18/2002 4:30 p 56.0 56.0 56.4 55.5 0.0 2.0 SSE 0.00 29.971
10/18/2002 5:00 p 54.3 54.3 55.5 53.8 0.0 1.0 --- 0.00 29.971
10/18/2002 5:30 p 53.7 53.7 54.4 53.2 0.0 2.0 SSW 0.00 29.972
10/18/2002 6:00 p 52.3 52.3 53.3 50.9 0.0 0.0 --- 0.00 29.986
10/18/2002 6:30 p 49.3 49.3 50.9 48.0 0.0 0.0 --- 0.00 29.993
10/18/2002 7:00 p 47.1 47.1 48.1 46.2 0.0 0.0 --- 0.00 30.006
10/18/2002 7:30 p 45.8 45.8 46.3 45.3 0.0 0.0 --- 0.00 30.015
10/18/2002 8:00 p 44.6 44.6 45.3 44.0 0.0 0.0 --- 0.00 30.024
10/18/2002 8:30 p 44.2 44.2 44.4 43.9 0.0 0.0 --- 0.00 30.030
10/18/2002 9:00 p 44.2 44.2 47.3 42.9 0.0 0.0 --- 0.00 30.034
10/18/2002 9:30 p 46.1 46.1 49.2 42.8 0.0 0.0 --- 0.00 30.037
10/18/2002 10:00 p 42.2 42.2 43.2 41.8 0.0 0.0 --- 0.00 30.035
10/18/2002 10:30 p 41.7 41.7 42.3 41.2 0.0 0.0 --- 0.00 30.036
10/18/2002 11:00 p 41.3 41.3 41.9 40.8 0.0 0.0 --- 0.00 30.034
10/18/2002 11:30 p 40.6 40.6 41.3 40.1 0.0 0.0 --- 0.00 30.031
10/19/2002 12:00 a 40.1 40.1 40.4 39.6 0.0 0.0 --- 0.00 30.019
10/19/2002 12:30 a 39.7 39.7 40.0 39.3 0.0 0.0 --- 0.00 30.017
10/19/2002 1:00 a 39.6 39.6 39.8 39.4 0.0 0.0 --- 0.00 30.021
10/19/2002 1:30 a 39.1 39.1 39.5 38.7 0.0 0.0 --- 0.00 30.011
10/19/2002 2:00 a 39.0 39.0 39.3 38.7 0.0 0.0 --- 0.00 30.002
10/19/2002 2:30 a 38.8 38.8 39.2 38.4 0.0 0.0 --- 0.00 29.987
10/19/2002 3:00 a 38.8 38.8 39.0 38.5 0.0 0.0 --- 0.00 29.981
10/19/2002 3:30 a 38.5 38.5 38.7 38.1 0.0 0.0 --- 0.00 29.967
10/19/2002 4:00 a 38.0 38.0 38.5 37.7 0.0 0.0 --- 0.00 29.963
10/19/2002 4:30 a 37.8 37.8 38.3 37.6 0.0 0.0 --- 0.00 29.963
10/19/2002 5:00 a 37.5 37.5 38.0 37.1 0.0 0.0 --- 0.00 29.962
10/19/2002 5:30 a 37.4 37.4 37.7 37.2 0.0 0.0 --- 0.00 29.959
10/19/2002 6:00 a 37.3 37.3 37.8 36.9 0.0 0.0 --- 0.00 29.955
10/19/2002 6:30 a 37.2 37.2 37.8 36.7 0.0 0.0 --- 0.00 29.937
10/19/2002 7:00 a 37.2 37.2 37.7 36.9 0.0 0.0 --- 0.00 29.925
10/19/2002 7:30 a 37.3 37.3 37.5 36.9 0.0 0.0 --- 0.00 29.917
10/19/2002 8:00 a 38.3 38.3 39.2 37.2 0.0 0.0 --- 0.00 29.904
10/19/2002 8:30 a 40.6 40.6 42.3 39.2 0.0 0.0 --- 0.00 29.915
10/19/2002 9:00 a 43.6 43.6 44.3 42.3 0.0 0.0 --- 0.00 29.914
10/19/2002 9:30 a 49.1 49.1 50.5 44.3 0.0 2.0 SW 0.00 29.895
10/19/2002 10:00 a 51.6 51.6 52.8 50.5 0.0 2.0 SW 0.00 29.891
10/19/2002 10:30 a 52.9 52.9 53.5 52.4 0.0 2.0 SW 0.00 29.869
10/19/2002 11:00 a 53.7 53.7 54.4 53.2 0.0 1.0 SW 0.00 29.851
10/19/2002 11:30 a 55.0 55.0 55.7 54.4 0.0 3.0 WNW 0.00 29.845
10/19/2002 12:00 p 56.3 56.3 56.5 55.6 0.0 1.0 SSW 0.00 29.818
10/19/2002 12:30 p 57.4 57.4 58.3 56.3 0.0 4.0 W 0.00 29.782
10/19/2002 1:00 p 59.0 59.0 59.6 58.2 0.0 4.0 WSW 0.00 29.770
10/19/2002 1:30 p 59.0 59.0 59.6 58.6 1.0 5.0 NNW 0.00 29.732
10/19/2002 2:00 p 59.1 59.1 59.4 58.8 0.0 4.0 NW 0.00 29.702
10/19/2002 2:30 p 59.6 59.6 61.3 59.0 0.0 2.0 N 0.00 29.694
10/19/2002 3:00 p 61.2 61.2 62.0 60.8 0.0 3.0 SSW 0.00 29.685
10/19/2002 3:30 p 63.8 63.8 65.7 62.2 0.0 2.0 N 0.00 29.674
10/19/2002 4:00 p 63.3 63.3 65.1 62.0 0.0 2.0 N 0.00 29.679
10/19/2002 4:30 p 63.6 63.6 65.0 62.3 0.0 1.0 SSW 0.00 29.675
10/19/2002 5:00 p 61.2 61.2 63.3 59.8 0.0 1.0 --- 0.00 29.686
10/19/2002 5:30 p 59.2 59.2 62.6 58.4 0.0 2.0 SSW 0.00 29.701
10/19/2002 6:00 p 58.5 58.5 59.0 58.1 0.0 2.0 SSE 0.00 29.710
10/19/2002 6:30 p 58.2 58.2 58.7 57.8 0.0 1.0 ESE 0.00 29.716
10/19/2002 7:00 p 61.2 61.2 63.3 57.9 0.0 2.0 SW 0.00 29.717
10/19/2002 7:30 p 59.6 59.6 62.9 56.7 0.0 1.0 WSW 0.00 29.714
10/19/2002 8:00 p 56.6 56.6 59.4 55.9 0.0 0.0 --- 0.00 29.714
10/19/2002 8:30 p 58.6 58.6 60.7 56.8 0.0 0.0 --- 0.00 29.722
10/19/2002 9:00 p 56.6 56.6 59.2 54.3 0.0 0.0 --- 0.00 29.729
10/19/2002 9:30 p 55.9 55.9 58.9 54.3 0.0 0.0 --- 0.00 29.729
10/19/2002 10:00 p 54.8 54.8 58.2 52.4 0.0 0.0 --- 0.00 29.736
10/19/2002 10:30 p 54.6 54.6 57.7 52.3 0.0 0.0 --- 0.00 29.726
10/19/2002 11:00 p 54.2 54.2 57.2 52.3 0.0 0.0 --- 0.00 29.733
10/19/2002 11:30 p 51.2 51.2 53.3 50.4 0.0 0.0 --- 0.00 29.734
10/20/2002 12:00 a 50.7 50.7 51.7 49.9 0.0 2.0 SW 0.00 29.740
10/20/2002 12:30 a 51.5 51.5 52.1 50.9 0.0 0.0 --- 0.00 29.745
10/20/2002 1:00 a 52.0 52.0 52.3 51.8 0.0 0.0 --- 0.00 29.747
10/20/2002 1:30 a 51.9 51.9 52.0 51.7 0.0 0.0 --- 0.00 29.751
10/20/2002 2:00 a 51.5 51.5 51.8 51.0 0.0 0.0 --- 0.00 29.755
10/20/2002 2:30 a 50.7 50.7 51.1 50.2 0.0 0.0 --- 0.00 29.764
10/20/2002 3:00 a 49.9 49.9 50.3 49.5 0.0 0.0 --- 0.00 29.761
10/20/2002 3:30 a 49.2 49.2 49.6 48.8 0.0 0.0 --- 0.00 29.769
10/20/2002 4:00 a 49.1 49.1 49.4 48.6 0.0 0.0 --- 0.00 29.763
10/20/2002 4:30 a 48.0 48.0 48.6 47.0 0.0 0.0 --- 0.00 29.775
10/20/2002 5:00 a 46.9 46.9 47.2 46.1 0.0 0.0 --- 0.00 29.781
10/20/2002 5:30 a 45.5 45.5 47.3 44.7 0.0 0.0 --- 0.00 29.781
10/20/2002 6:00 a 46.6 46.6 52.1 44.8 0.0 0.0 --- 0.00 29.791
10/20/2002 6:30 a 44.9 44.9 47.6 43.7 0.0 0.0 --- 0.00 29.803
10/20/2002 7:00 a 43.6 43.6 44.3 43.1 0.0 0.0 --- 0.00 29.811
10/20/2002 7:30 a 42.9 42.9 43.6 42.3 0.0 0.0 --- 0.00 29.812
10/20/2002 8:00 a 43.2 43.2 44.5 42.1 0.0 0.0 --- 0.00 29.820
10/20/2002 8:30 a 45.8 45.8 47.9 44.4 0.0 0.0 --- 0.00 29.830
10/20/2002 9:00 a 49.7 49.7 50.7 47.9 0.0 2.0 SW 0.00 29.842
10/20/2002 9:30 a 51.3 51.3 52.3 50.3 0.0 2.0 S 0.00 29.845
10/20/2002 10:00 a 52.8 52.8 53.8 52.2 0.0 3.0 S 0.00 29.843
10/20/2002 10:30 a 54.2 54.2 55.1 53.6 0.0 4.0 SSE 0.00 29.842
10/20/2002 11:00 a 56.4 56.4 57.0 55.1 1.0 5.0 SSE 0.00 29.845
10/20/2002 11:30 a 56.6 56.6 57.1 55.9 1.0 5.0 SSE 0.00 29.837
10/20/2002 12:00 p 58.3 58.3 59.4 56.7 1.0 5.0 SSE 0.00 29.834
10/20/2002 12:30 p 59.2 59.2 60.1 58.0 1.0 6.0 SSE 0.00 29.829
10/20/2002 1:00 p 59.8 59.8 60.8 58.9 1.0 5.0 SSE 0.00 29.816
10/20/2002 1:30 p 60.4 60.4 61.5 59.5 0.0 4.0 SSE 0.00 29.807
10/20/2002 2:00 p 60.9 60.9 61.8 60.2 1.0 5.0 SE 0.00 29.805
10/20/2002 2:30 p 60.5 60.5 61.5 59.7 0.0 4.0 SSE 0.00 29.804
10/20/2002 3:00 p 60.5 60.5 61.2 59.8 0.0 4.0 SSE 0.00 29.794
10/20/2002 3:30 p 60.1 60.1 60.7 59.6 0.0 5.0 SSE 0.00 29.796
10/20/2002 4:00 p 59.5 59.5 60.1 59.0 0.0 3.0 SSE 0.00 29.807
10/20/2002 4:30 p 58.6 58.6 59.3 57.9 0.0 2.0 SSE 0.00 29.801
10/20/2002 5:00 p 58.9 58.9 60.8 57.9 0.0 2.0 SSE 0.00 29.807
10/20/2002 5:30 p 56.9 56.9 60.9 55.0 0.0 0.0 --- 0.00 29.816
10/20/2002 6:00 p 53.6 53.6 55.0 52.0 0.0 0.0 --- 0.00 29.829
10/20/2002 6:30 p 51.1 51.1 52.6 50.2 0.0 0.0 --- 0.00 29.841
10/20/2002 7:00 p 52.4 52.4 55.7 50.2 0.0 0.0 --- 0.00 29.846
10/20/2002 7:30 p 51.2 51.2 57.4 48.2 0.0 1.0 --- 0.00 29.858
10/20/2002 8:00 p 47.5 47.5 48.3 46.3 0.0 0.0 --- 0.00 29.855
10/20/2002 8:30 p 46.5 46.5 47.1 46.1 0.0 0.0 --- 0.00 29.865
10/20/2002 9:00 p 46.0 46.0 46.3 45.7 0.0 0.0 --- 0.00 29.869
10/20/2002 9:30 p 45.9 45.9 46.3 45.6 0.0 0.0 --- 0.00 29.877
10/20/2002 10:00 p 45.5 45.5 46.0 45.2 0.0 0.0 --- 0.00 29.883
10/20/2002 10:30 p 44.8 44.8 45.4 44.5 0.0 0.0 --- 0.00 29.895
10/20/2002 11:00 p 44.6 44.6 44.8 44.2 0.0 0.0 --- 0.00 29.894
10/20/2002 11:30 p 44.6 44.6 44.9 43.9 0.0 0.0 --- 0.00 29.895
10/21/2002 12:00 a 43.8 43.8 44.2 43.4 0.0 0.0 --- 0.00 29.892
10/21/2002 12:30 a 43.6 43.6 43.8 43.3 0.0 0.0 --- 0.00 29.897
10/21/2002 1:00 a 42.6 42.6 43.4 42.1 0.0 0.0 --- 0.00 29.898
10/21/2002 1:30 a 42.4 42.4 42.6 42.1 0.0 0.0 --- 0.00 29.898
10/21/2002 2:00 a 41.9 41.9 42.4 41.5 0.0 0.0 --- 0.00 29.902
10/21/2002 2:30 a 41.5 41.5 41.8 41.2 0.0 0.0 --- 0.00 29.904
10/21/2002 3:00 a 41.5 41.5 41.7 41.3 0.0 0.0 --- 0.00 29.895
10/21/2002 3:30 a 41.6 41.6 41.8 41.4 0.0 0.0 --- 0.00 29.891
10/21/2002 4:00 a 41.1 41.1 41.4 40.9 0.0 0.0 --- 0.00 29.891
10/21/2002 4:30 a 41.0 41.0 41.4 40.7 0.0 0.0 --- 0.00 29.889
10/21/2002 5:00 a 40.4 40.4 41.4 40.0 0.0 0.0 --- 0.00 29.896
10/21/2002 5:30 a 39.8 39.8 40.2 39.4 0.0 0.0 --- 0.00 29.903
10/21/2002 6:00 a 40.1 40.1 40.5 39.6 0.0 0.0 --- 0.00 29.926
10/21/2002 6:30 a 40.3 40.3 40.8 40.0 0.0 0.0 --- 0.00 29.920
10/21/2002 7:00 a 41.7 41.7 42.6 40.7 0.0 1.0 SSE 0.00 29.934
10/21/2002 7:30 a 42.6 42.6 42.8 42.2 0.0 0.0 --- 0.00 29.951
10/21/2002 8:00 a 43.3 43.3 44.0 42.7 0.0 1.0 --- 0.00 29.964
10/21/2002 8:30 a 45.5 45.5 47.0 43.9 0.0 4.0 SE 0.00 29.978
10/21/2002 9:00 a 47.6 47.6 48.5 46.8 0.0 2.0 SE 0.00 29.986
10/21/2002 9:30 a 48.8 48.8 49.4 48.1 0.0 3.0 SE 0.00 29.993
10/21/2002 10:00 a 49.6 49.6 50.8 48.3 0.0 3.0 SE 0.00 29.988
10/21/2002 10:30 a 50.8 50.8 51.5 49.8 1.0 6.0 SSE 0.00 29.996
10/21/2002 11:00 a 52.4 52.4 54.1 51.3 0.0 4.0 SSE 0.00 29.989
10/21/2002 11:30 a 54.3 54.3 54.9 53.8 1.0 5.0 SSE 0.00 29.989
10/21/2002 12:00 p 55.2 55.2 56.2 54.2 1.0 5.0 SSE 0.00 29.982
10/21/2002 12:30 p 56.2 56.2 57.2 55.0 1.0 6.0 SSE 0.00 29.968
10/21/2002 1:00 p 56.7 56.7 58.0 55.7 0.0 4.0 SSE 0.00 29.953
10/21/2002 1:30 p 56.6 56.6 58.2 55.0 1.0 5.0 SSE 0.00 29.945
10/21/2002 2:00 p 57.7 57.7 59.3 55.8 1.0 5.0 SSE 0.00 29.939
10/21/2002 2:30 p 57.7 57.7 59.2 56.4 1.0 4.0 SSE 0.00 29.938
10/21/2002 3:00 p 57.3 57.3 58.2 56.5 1.0 5.0 SSE 0.00 29.940
10/21/2002 3:30 p 56.3 56.3 56.9 55.8 1.0 5.0 SSE 0.00 29.935
10/21/2002 4:00 p 55.3 55.3 55.9 54.9 1.0 4.0 SSE 0.00 29.945
10/21/2002 4:30 p 54.7 54.7 55.1 54.2 0.0 4.0 SSE 0.00 29.947
10/21/2002 5:00 p 54.0 54.0 54.4 53.4 0.0 4.0 SSE 0.00 29.952
10/21/2002 5:30 p 53.3 53.3 53.5 53.1 0.0 3.0 SSE 0.00 29.958
10/21/2002 6:00 p 52.3 52.3 53.4 51.5 0.0 1.0 SSE 0.00 29.965
10/21/2002 6:30 p 50.0 50.0 51.7 49.3 0.0 1.0 --- 0.00 29.968
10/21/2002 7:00 p 47.2 47.2 49.6 45.9 0.0 0.0 --- 0.00 29.980
10/21/2002 7:30 p 45.0 45.0 45.9 44.1 0.0 0.0 --- 0.00 29.989
10/21/2002 8:00 p 43.7 43.7 44.1 43.2 0.0 0.0 --- 0.00 29.998
10/21/2002 8:30 p 42.5 42.5 43.2 42.0 0.0 0.0 --- 0.00 30.000
10/21/2002 9:00 p 41.7 41.7 42.0 41.1 0.0 0.0 --- 0.00 30.006
10/21/2002 9:30 p 40.9 40.9 41.3 40.3 0.0 0.0 --- 0.00 30.015
10/21/2002 10:00 p 40.2 40.2 40.8 39.7 0.0 0.0 --- 0.00 30.022
10/21/2002 10:30 p 39.8 39.8 40.1 39.4 0.0 0.0 --- 0.00 30.031
10/21/2002 11:00 p 39.5 39.5 39.9 39.1 0.0 0.0 --- 0.00 30.034
10/21/2002 11:30 p 39.4 39.4 39.7 39.2 0.0 0.0 --- 0.00 30.040
10/22/2002 12:00 a 39.3 39.3 39.5 39.1 0.0 0.0 --- 0.00 30.039
10/22/2002 12:30 a 39.6 39.6 40.4 39.2 0.0 0.0 --- 0.00 30.049
10/22/2002 1:00 a 40.0 40.0 40.9 38.9 0.0 0.0 --- 0.00 30.052
10/22/2002 1:30 a 39.2 39.2 39.8 38.8 0.0 0.0 --- 0.00 30.054
10/22/2002 2:00 a 39.5 39.5 39.9 38.8 0.0 0.0 --- 0.00 30.052
10/22/2002 2:30 a 38.5 38.5 39.1 38.0 0.0 0.0 --- 0.00 30.056
10/22/2002 3:00 a 38.4 38.4 39.3 37.9 0.0 0.0 --- 0.00 30.056
10/22/2002 3:30 a 39.0 39.0 39.4 38.7 0.0 0.0 --- 0.00 30.047
10/22/2002 4:00 a 39.1 39.1 39.3 38.6 0.0 0.0 --- 0.00 30.041
10/22/2002 4:30 a 38.4 38.4 38.8 37.7 0.0 0.0 --- 0.00 30.048
10/22/2002 5:00 a 37.0 37.0 37.9 36.5 0.0 0.0 --- 0.00 30.053
10/22/2002 5:30 a 39.9 39.9 47.0 36.6 0.0 0.0 --- 0.00 30.062
10/22/2002 6:00 a 38.6 38.6 45.5 36.7 0.0 0.0 --- 0.00 30.073
10/22/2002 6:30 a 36.7 36.7 37.2 36.4 0.0 0.0 --- 0.00 30.084
10/22/2002 7:00 a 36.5 36.5 36.8 36.3 0.0 0.0 --- 0.00 30.088